Wetterstation Bremen Blumenthal 53.19 Nord 008.57 Ost
Wetterdaten: aktuell Sonntag, 26.09.2021 17:58
Datum Zeit Temp.A.2m Temp 5cm Temp - 30cm Feuchte A.2m BlattFeu 1 Luftdruck Regen Wind Richtung Richtung Sonnenschein Zeit Regen ET UV Solar Taupunkt Windchill Windben
26.09.2021 17:58 22,4 C 21,7 C 20,0 C 76 % 0 lf 1014,3 hPa 0,0 l/m 3,9 km/h (1 Bft) SO 144 0 min 0 min 0,000 mm 0,0 UV-I 93 W/m 18,0 C 22,4 C 6,4 km/h (2 Bft)
26.09.2021 17:56 22,4 C 22,2 C 20,0 C 76 % 0 lf 1014,3 hPa 0,0 l/m 4,7 km/h (1 Bft) S-SO 149 2 min 0 min 0,000 mm 0,0 UV-I 105 W/m 18,0 C 22,4 C 6,4 km/h (2 Bft)
26.09.2021 17:54 22,4 C 22,2 C 20,0 C 76 % 0 lf 1014,3 hPa 0,0 l/m 3,4 km/h (1 Bft) S-SW 198 0 min 0 min 0,000 mm 0,0 UV-I 98 W/m 18,0 C 22,4 C 4,8 km/h (1 Bft)
26.09.2021 17:52 22,4 C 22,2 C 20,0 C 76 % 0 lf 1014,3 hPa 0,0 l/m 3,2 km/h (1 Bft) S-SO 161 0 min 0 min 0,000 mm 0,0 UV-I 100 W/m 18,0 C 22,4 C 4,8 km/h (1 Bft)
26.09.2021 17:50 22,4 C 22,2 C 20,0 C 76 % 0 lf 1014,2 hPa 0,0 l/m 1,8 km/h (1 Bft) S 169 2 min 0 min 0,000 mm 0,0 UV-I 116 W/m 18,0 C 22,4 C 3,2 km/h (1 Bft)
26.09.2021 17:48 22,4 C 21,7 C 20,0 C 76 % 0 lf 1014,2 hPa 0,0 l/m 1,5 km/h (1 Bft) SO 136 2 min 0 min 0,000 mm 0,0 UV-I 122 W/m 18,0 C 22,4 C 4,8 km/h (1 Bft)
26.09.2021 17:46 22,4 C 21,7 C 20,0 C 75 % 0 lf 1014,2 hPa 0,0 l/m 1,6 km/h (1 Bft) S-SO 156 0 min 0 min 0,000 mm 0,0 UV-I 109 W/m 17,7 C 22,4 C 3,2 km/h (1 Bft)
26.09.2021 17:44 22,6 C 21,7 C 20,0 C 75 % 0 lf 1014,2 hPa 0,0 l/m 2,7 km/h (1 Bft) S 173 0 min 0 min 0,000 mm 0,0 UV-I 91 W/m 17,9 C 22,6 C 6,4 km/h (2 Bft)
26.09.2021 17:42 22,6 C 21,7 C 20,0 C 75 % 0 lf 1014,2 hPa 0,0 l/m 2,3 km/h (1 Bft) S-SO 153 0 min 0 min 0,000 mm 0,0 UV-I 83 W/m 17,9 C 22,6 C 4,8 km/h (1 Bft)
26.09.2021 17:40 22,6 C 22,2 C 20,0 C 75 % 0 lf 1014,1 hPa 0,0 l/m 1,0 km/h (0 Bft) SO 146 0 min 0 min 0,000 mm 0,0 UV-I 84 W/m 17,9 C 22,6 C 1,6 km/h (1 Bft)
26.09.2021 17:38 22,6 C 22,2 C 20,0 C 75 % 0 lf 1014,2 hPa 0,0 l/m 0,7 km/h (0 Bft) S-SW 192 0 min 0 min 0,000 mm 0,0 UV-I 89 W/m 17,9 C 22,6 C 1,6 km/h (1 Bft)
26.09.2021 17:36 22,6 C 22,2 C 20,0 C 74 % 0 lf 1014,1 hPa 0,0 l/m 3,1 km/h (1 Bft) S-SW 192 0 min 0 min 0,000 mm 0,0 UV-I 91 W/m 17,7 C 22,6 C 6,4 km/h (2 Bft)
26.09.2021 17:34 22,7 C 22,8 C 20,0 C 74 % 0 lf 1014,2 hPa 0,0 l/m 3,5 km/h (1 Bft) S 171 0 min 0 min 0,000 mm 0,0 UV-I 94 W/m 17,8 C 22,7 C 6,4 km/h (2 Bft)
26.09.2021 17:32 22,7 C 23,3 C 20,0 C 75 % 0 lf 1014,2 hPa 0,0 l/m 2,6 km/h (1 Bft) S 191 0 min 0 min 0,000 mm 0,0 UV-I 112 W/m 18,0 C 22,7 C 4,8 km/h (1 Bft)
26.09.2021 17:30 22,7 C 23,9 C 20,0 C 74 % 0 lf 1014,3 hPa 0,0 l/m 3,3 km/h (1 Bft) O-SO 121 0 min 0 min 0,000 mm 0,0 UV-I 136 W/m 17,8 C 22,7 C 4,8 km/h (1 Bft)
26.09.2021 17:28 22,7 C 23,9 C 19,4 C 74 % 0 lf 1014,2 hPa 0,0 l/m 3,1 km/h (1 Bft) S-SW 200 2 min 0 min 0,000 mm 0,0 UV-I 178 W/m 17,8 C 22,7 C 6,4 km/h (2 Bft)
26.09.2021 17:26 22,8 C 24,4 C 19,4 C 74 % 0 lf 1014,3 hPa 0,0 l/m 2,8 km/h (1 Bft) S-SW 198 2 min 0 min 0,000 mm 0,0 UV-I 184 W/m 17,9 C 22,8 C 4,8 km/h (1 Bft)
26.09.2021 17:24 22,8 C 25,0 C 19,4 C 74 % 0 lf 1014,3 hPa 0,0 l/m 4,1 km/h (1 Bft) S 190 2 min 0 min 0,000 mm 0,0 UV-I 171 W/m 17,9 C 22,8 C 6,4 km/h (2 Bft)
26.09.2021 17:22 22,8 C 25,6 C 19,4 C 74 % 0 lf 1014,3 hPa 0,0 l/m 2,8 km/h (1 Bft) S 178 2 min 0 min 0,000 mm 0,0 UV-I 190 W/m 17,9 C 22,8 C 4,8 km/h (1 Bft)
26.09.2021 17:20 22,7 C 25,6 C 19,4 C 74 % 0 lf 1014,3 hPa 0,0 l/m 3,8 km/h (1 Bft) S-SO 148 2 min 0 min 0,000 mm 0,0 UV-I 191 W/m 17,8 C 22,7 C 4,8 km/h (1 Bft)
26.09.2021 17:18 22,7 C 25,6 C 19,4 C 75 % 0 lf 1014,3 hPa 0,0 l/m 3,4 km/h (1 Bft) S 180 2 min 0 min 0,000 mm 0,0 UV-I 234 W/m 18,0 C 22,7 C 6,4 km/h (2 Bft)
26.09.2021 17:16 22,7 C 25,6 C 19,4 C 76 % 0 lf 1014,4 hPa 0,0 l/m 4,1 km/h (1 Bft) S-SW 196 2 min 0 min 0,000 mm 0,0 UV-I 240 W/m 18,2 C 22,7 C 8,0 km/h (2 Bft)
26.09.2021 17:14 22,6 C 24,4 C 19,4 C 75 % 0 lf 1014,3 hPa 0,0 l/m 1,7 km/h (1 Bft) S-SW 196 2 min 0 min 0,000 mm 0,0 UV-I 228 W/m 17,9 C 22,6 C 4,8 km/h (1 Bft)
26.09.2021 17:12 22,4 C 23,3 C 19,4 C 75 % 0 lf 1014,4 hPa 0,0 l/m 2,1 km/h (1 Bft) S-SO 162 2 min 0 min 0,000 mm 0,0 UV-I 186 W/m 17,7 C 22,4 C 4,8 km/h (1 Bft)
26.09.2021 17:10 22,4 C 22,8 C 19,4 C 75 % 0 lf 1014,3 hPa 0,0 l/m 4,1 km/h (1 Bft) S 184 2 min 0 min 0,000 mm 0,0 UV-I 169 W/m 17,7 C 22,4 C 6,4 km/h (2 Bft)
26.09.2021 17:08 22,4 C 22,8 C 19,4 C 75 % 0 lf 1014,4 hPa 0,0 l/m 2,2 km/h (1 Bft) S-SO 163 0 min 0 min 0,000 mm 0,0 UV-I 154 W/m 17,7 C 22,4 C 4,8 km/h (1 Bft)
26.09.2021 17:06 22,3 C 22,2 C 19,4 C 75 % 0 lf 1014,4 hPa 0,0 l/m 4,2 km/h (1 Bft) S-SO 164 0 min 0 min 0,000 mm 0,0 UV-I 132 W/m 17,6 C 22,3 C 8,0 km/h (2 Bft)
26.09.2021 17:04 22,4 C 22,2 C 19,4 C 75 % 0 lf 1014,4 hPa 0,0 l/m 4,6 km/h (1 Bft) S 175 0 min 0 min 0,000 mm 0,0 UV-I 113 W/m 17,7 C 22,4 C 8,0 km/h (2 Bft)
26.09.2021 17:02 22,4 C 22,2 C 19,4 C 74 % 0 lf 1014,4 hPa 0,0 l/m 5,9 km/h (2 Bft) S-SW 199 0 min 0 min 0,000 mm 0,0 UV-I 113 W/m 17,5 C 22,4 C 11,3 km/h (2 Bft)
26.09.2021 17:00 22,4 C 22,8 C 19,4 C 74 % 0 lf 1014,4 hPa 0,0 l/m 4,7 km/h (1 Bft) SO 140 0 min 0 min 0,127 mm 0,0 UV-I 119 W/m 17,5 C 22,4 C 8,0 km/h (2 Bft)
26.09.2021 16:58 22,4 C 22,8 C 19,4 C 75 % 0 lf 1014,4 hPa 0,0 l/m 5,2 km/h (1 Bft) S-SO 151 0 min 0 min 0,000 mm 0,0 UV-I 128 W/m 17,7 C 22,4 C 9,7 km/h (2 Bft)
26.09.2021 16:56 22,4 C 22,8 C 19,4 C 75 % 0 lf 1014,4 hPa 0,0 l/m 4,3 km/h (1 Bft) S-SW 198 0 min 0 min 0,000 mm 0,0 UV-I 136 W/m 17,7 C 22,4 C 8,0 km/h (2 Bft)
26.09.2021 16:54 22,4 C 22,8 C 19,4 C 75 % 0 lf 1014,4 hPa 0,0 l/m 4,4 km/h (1 Bft) SO 128 0 min 0 min 0,000 mm 0,0 UV-I 141 W/m 17,7 C 22,4 C 8,0 km/h (2 Bft)
26.09.2021 16:52 22,4 C 22,8 C 19,4 C 74 % 0 lf 1014,4 hPa 0,0 l/m 4,6 km/h (1 Bft) S-SO 167 0 min 0 min 0,000 mm 0,0 UV-I 136 W/m 17,5 C 22,4 C 8,0 km/h (2 Bft)
26.09.2021 16:50 22,4 C 22,8 C 19,4 C 75 % 0 lf 1014,4 hPa 0,0 l/m 4,1 km/h (1 Bft) S-SO 155 0 min 0 min 0,000 mm 0,0 UV-I 138 W/m 17,7 C 22,4 C 6,4 km/h (2 Bft)
26.09.2021 16:48 22,4 C 22,8 C 19,4 C 75 % 0 lf 1014,4 hPa 0,0 l/m 3,6 km/h (1 Bft) S-SO 161 0 min 0 min 0,000 mm 0,0 UV-I 131 W/m 17,7 C 22,4 C 6,4 km/h (2 Bft)
26.09.2021 16:46 22,4 C 22,8 C 19,4 C 74 % 0 lf 1014,4 hPa 0,0 l/m 4,9 km/h (1 Bft) S-SO 166 0 min 0 min 0,000 mm 0,0 UV-I 128 W/m 17,5 C 22,4 C 11,3 km/h (2 Bft)
26.09.2021 16:44 22,4 C 22,8 C 19,4 C 75 % 0 lf 1014,4 hPa 0,0 l/m 4,6 km/h (1 Bft) O-SO 121 0 min 0 min 0,000 mm 0,0 UV-I 128 W/m 17,7 C 22,4 C 8,0 km/h (2 Bft)
26.09.2021 16:42 22,4 C 22,8 C 19,4 C 75 % 0 lf 1014,4 hPa 0,0 l/m 5,2 km/h (1 Bft) S 176 0 min 0 min 0,000 mm 0,0 UV-I 128 W/m 17,7 C 22,4 C 11,3 km/h (2 Bft)
26.09.2021 16:40 22,4 C 22,8 C 19,4 C 74 % 0 lf 1014,4 hPa 0,0 l/m 3,8 km/h (1 Bft) S 171 0 min 0 min 0,000 mm 0,0 UV-I 128 W/m 17,5 C 22,4 C 8,0 km/h (2 Bft)
26.09.2021 16:38 22,4 C 22,8 C 19,4 C 74 % 0 lf 1014,4 hPa 0,0 l/m 3,9 km/h (1 Bft) S-SO 166 0 min 0 min 0,000 mm 0,0 UV-I 128 W/m 17,5 C 22,4 C 8,0 km/h (2 Bft)
26.09.2021 16:36 22,5 C 22,8 C 19,4 C 74 % 0 lf 1014,3 hPa 0,0 l/m 3,7 km/h (1 Bft) S 183 0 min 0 min 0,000 mm 0,0 UV-I 128 W/m 17,6 C 22,5 C 6,4 km/h (2 Bft)
26.09.2021 16:34 22,5 C 23,3 C 19,4 C 74 % 0 lf 1014,3 hPa 0,0 l/m 5,3 km/h (1 Bft) S 175 0 min 0 min 0,000 mm 0,0 UV-I 132 W/m 17,6 C 22,5 C 11,3 km/h (2 Bft)
26.09.2021 16:32 22,6 C 23,3 C 19,4 C 75 % 0 lf 1014,3 hPa 0,0 l/m 4,4 km/h (1 Bft) S 172 0 min 0 min 0,000 mm 0,0 UV-I 137 W/m 17,9 C 22,6 C 6,4 km/h (2 Bft)
26.09.2021 16:30 22,6 C 23,3 C 19,4 C 75 % 0 lf 1014,3 hPa 0,0 l/m 5,2 km/h (1 Bft) O-SO 113 0 min 0 min 0,000 mm 0,0 UV-I 147 W/m 17,9 C 22,6 C 8,0 km/h (2 Bft)
26.09.2021 16:28 22,5 C 23,9 C 19,4 C 75 % 0 lf 1014,3 hPa 0,0 l/m 3,5 km/h (1 Bft) SO 128 0 min 0 min 0,000 mm 0,0 UV-I 151 W/m 17,8 C 22,5 C 6,4 km/h (2 Bft)
26.09.2021 16:26 22,6 C 23,9 C 19,4 C 74 % 0 lf 1014,2 hPa 0,0 l/m 6,1 km/h (2 Bft) SW 223 0 min 0 min 0,000 mm 0,0 UV-I 158 W/m 17,7 C 22,6 C 9,7 km/h (2 Bft)
26.09.2021 16:24 22,6 C 24,4 C 19,4 C 75 % 0 lf 1014,3 hPa 0,0 l/m 5,2 km/h (1 Bft) S 179 0 min 0 min 0,000 mm 0,0 UV-I 169 W/m 17,9 C 22,6 C 9,7 km/h (2 Bft)
26.09.2021 16:22 22,6 C 24,4 C 19,4 C 76 % 0 lf 1014,2 hPa 0,0 l/m 2,7 km/h (1 Bft) S 178 2 min 0 min 0,000 mm 0,0 UV-I 226 W/m 18,1 C 22,6 C 6,4 km/h (2 Bft)
26.09.2021 16:20 22,6 C 24,4 C 19,4 C 76 % 0 lf 1014,2 hPa 0,0 l/m 2,5 km/h (1 Bft) S 178 2 min 0 min 0,000 mm 0,0 UV-I 232 W/m 18,1 C 22,6 C 4,8 km/h (1 Bft)
26.09.2021 16:18 22,6 C 23,9 C 19,4 C 76 % 0 lf 1014,2 hPa 0,0 l/m 3,6 km/h (1 Bft) SO 132 0 min 0 min 0,000 mm 0,0 UV-I 196 W/m 18,1 C 22,6 C 8,0 km/h (2 Bft)
26.09.2021 16:16 22,6 C 23,9 C 19,4 C 76 % 0 lf 1014,2 hPa 0,0 l/m 4,6 km/h (1 Bft) SO 132 0 min 0 min 0,000 mm 0,0 UV-I 180 W/m 18,1 C 22,6 C 8,0 km/h (2 Bft)
26.09.2021 16:14 22,6 C 23,9 C 19,4 C 75 % 0 lf 1014,2 hPa 0,0 l/m 4,0 km/h (1 Bft) SO 146 0 min 0 min 0,000 mm 0,0 UV-I 171 W/m 17,9 C 22,6 C 8,0 km/h (2 Bft)
26.09.2021 16:12 22,7 C 24,4 C 19,4 C 75 % 0 lf 1014,3 hPa 0,0 l/m 3,6 km/h (1 Bft) S 190 0 min 0 min 0,000 mm 0,0 UV-I 173 W/m 18,0 C 22,7 C 6,4 km/h (2 Bft)
26.09.2021 16:10 22,8 C 25,0 C 19,4 C 74 % 0 lf 1014,3 hPa 0,0 l/m 6,0 km/h (2 Bft) S-SO 155 0 min 0 min 0,000 mm 0,0 UV-I 184 W/m 17,9 C 22,8 C 8,0 km/h (2 Bft)
26.09.2021 16:08 22,9 C 25,6 C 19,4 C 74 % 0 lf 1014,3 hPa 0,0 l/m 3,2 km/h (1 Bft) SO 136 0 min 0 min 0,000 mm 0,0 UV-I 172 W/m 18,0 C 22,9 C 6,4 km/h (2 Bft)
26.09.2021 16:06 23,0 C 26,7 C 19,4 C 73 % 0 lf 1014,3 hPa 0,0 l/m 5,5 km/h (2 Bft) O-SO 102 0 min 0 min 0,000 mm 0,0 UV-I 142 W/m 17,9 C 23,0 C 8,0 km/h (2 Bft)
26.09.2021 16:04 23,2 C 28,3 C 19,4 C 74 % 0 lf 1014,2 hPa 0,0 l/m 4,1 km/h (1 Bft) O-SO 123 0 min 0 min 0,000 mm 0,0 UV-I 195 W/m 18,3 C 23,2 C 8,0 km/h (2 Bft)
26.09.2021 16:02 23,2 C 28,9 C 19,4 C 75 % 0 lf 1014,3 hPa 0,0 l/m 3,1 km/h (1 Bft) S 184 2 min 0 min 0,203 mm 0,0 UV-I 378 W/m 18,5 C 23,2 C 8,0 km/h (2 Bft)
26.09.2021 16:00 23,1 C 28,9 C 18,9 C 76 % 0 lf 1014,3 hPa 0,0 l/m 2,8 km/h (1 Bft) O 96 2 min 0 min 0,000 mm 0,1 UV-I 445 W/m 18,6 C 23,1 C 6,4 km/h (2 Bft)
26.09.2021 15:58 22,8 C 28,3 C 18,9 C 76 % 0 lf 1014,4 hPa 0,0 l/m 2,1 km/h (1 Bft) SO 134 2 min 0 min 0,000 mm 0,5 UV-I 492 W/m 18,3 C 22,8 C 3,2 km/h (1 Bft)
26.09.2021 15:56 22,7 C 27,2 C 18,9 C 75 % 0 lf 1014,3 hPa 0,0 l/m 1,7 km/h (1 Bft) O 96 2 min 0 min 0,000 mm 0,1 UV-I 415 W/m 18,0 C 22,7 C 8,0 km/h (2 Bft)
26.09.2021 15:54 22,5 C 26,7 C 18,9 C 76 % 0 lf 1014,3 hPa 0,0 l/m 1,2 km/h (1 Bft) O 84 2 min 0 min 0,000 mm 0,3 UV-I 429 W/m 18,0 C 22,5 C 3,2 km/h (1 Bft)
26.09.2021 15:52 22,4 C 25,6 C 18,9 C 76 % 0 lf 1014,3 hPa 0,0 l/m 0,8 km/h (0 Bft) NO 53 2 min 0 min 0,000 mm 0,1 UV-I 321 W/m 18,0 C 22,4 C 3,2 km/h (1 Bft)
26.09.2021 15:50 22,3 C 25,0 C 18,9 C 77 % 0 lf 1014,4 hPa 0,0 l/m 1,8 km/h (1 Bft) O-NO 65 2 min 0 min 0,000 mm 0,0 UV-I 373 W/m 18,1 C 22,3 C 3,2 km/h (1 Bft)
26.09.2021 15:48 22,2 C 24,4 C 18,9 C 77 % 0 lf 1014,4 hPa 0,0 l/m 2,2 km/h (1 Bft) S-SO 157 2 min 0 min 0,000 mm 0,0 UV-I 292 W/m 18,0 C 22,2 C 4,8 km/h (1 Bft)
26.09.2021 15:46 22,2 C 23,9 C 18,9 C 77 % 0 lf 1014,4 hPa 0,0 l/m 1,4 km/h (1 Bft) S-SO 148 0 min 0 min 0,000 mm 0,0 UV-I 248 W/m 18,0 C 22,2 C 3,2 km/h (1 Bft)
26.09.2021 15:44 22,2 C 23,9 C 18,9 C 76 % 0 lf 1014,4 hPa 0,0 l/m 4,5 km/h (1 Bft) O 89 0 min 0 min 0,000 mm 0,0 UV-I 239 W/m 17,8 C 22,2 C 6,4 km/h (2 Bft)
26.09.2021 15:42 22,1 C 23,9 C 18,9 C 77 % 0 lf 1014,4 hPa 0,0 l/m 3,7 km/h (1 Bft) O-SO 116 0 min 0 min 0,000 mm 0,0 UV-I 236 W/m 17,9 C 22,1 C 8,0 km/h (2 Bft)
26.09.2021 15:40 22,1 C 23,9 C 18,9 C 77 % 0 lf 1014,4 hPa 0,0 l/m 3,5 km/h (1 Bft) O-SO 115 0 min 0 min 0,000 mm 0,0 UV-I 240 W/m 17,9 C 22,1 C 4,8 km/h (1 Bft)
26.09.2021 15:38 22,1 C 23,9 C 18,9 C 77 % 0 lf 1014,4 hPa 0,0 l/m 3,2 km/h (1 Bft) SO 126 0 min 0 min 0,000 mm 0,0 UV-I 235 W/m 17,9 C 22,1 C 4,8 km/h (1 Bft)
26.09.2021 15:36 22,1 C 23,9 C 18,9 C 76 % 0 lf 1014,5 hPa 0,0 l/m 3,8 km/h (1 Bft) S-SO 148 0 min 0 min 0,000 mm 0,0 UV-I 220 W/m 17,7 C 22,1 C 8,0 km/h (2 Bft)
26.09.2021 15:34 22,1 C 23,9 C 18,9 C 76 % 0 lf 1014,4 hPa 0,0 l/m 5,2 km/h (1 Bft) SO 126 0 min 0 min 0,000 mm 0,0 UV-I 241 W/m 17,7 C 22,1 C 8,0 km/h (2 Bft)
26.09.2021 15:32 22,2 C 24,4 C 18,9 C 76 % 0 lf 1014,4 hPa 0,0 l/m 3,7 km/h (1 Bft) O-SO 121 2 min 0 min 0,000 mm 0,2 UV-I 279 W/m 17,8 C 22,2 C 9,7 km/h (2 Bft)
26.09.2021 15:30 22,1 C 24,4 C 18,9 C 77 % 0 lf 1014,5 hPa 0,0 l/m 4,2 km/h (1 Bft) O 99 2 min 0 min 0,000 mm 0,5 UV-I 299 W/m 17,9 C 22,1 C 6,4 km/h (2 Bft)
26.09.2021 15:28 22,1 C 25,0 C 18,9 C 77 % 0 lf 1014,5 hPa 0,0 l/m 3,0 km/h (1 Bft) SO 129 2 min 0 min 0,000 mm 0,5 UV-I 311 W/m 17,9 C 22,1 C 4,8 km/h (1 Bft)
26.09.2021 15:26 22,1 C 24,4 C 18,9 C 76 % 0 lf 1014,5 hPa 0,0 l/m 6,3 km/h (2 Bft) SO 134 2 min 0 min 0,000 mm 0,5 UV-I 330 W/m 17,7 C 22,1 C 11,3 km/h (2 Bft)
26.09.2021 15:24 21,9 C 24,4 C 18,9 C 77 % 0 lf 1014,4 hPa 0,0 l/m 1,8 km/h (1 Bft) SO 134 2 min 0 min 0,000 mm 0,5 UV-I 309 W/m 17,7 C 21,9 C 4,8 km/h (1 Bft)
26.09.2021 15:22 21,9 C 23,9 C 18,9 C 76 % 0 lf 1014,4 hPa 0,0 l/m 5,0 km/h (1 Bft) SO 145 2 min 0 min 0,000 mm 0,5 UV-I 292 W/m 17,5 C 21,9 C 8,0 km/h (2 Bft)
26.09.2021 15:20 21,8 C 23,9 C 18,9 C 77 % 0 lf 1014,4 hPa 0,0 l/m 4,5 km/h (1 Bft) O 92 2 min 0 min 0,000 mm 0,5 UV-I 292 W/m 17,6 C 21,8 C 8,0 km/h (2 Bft)
26.09.2021 15:18 21,8 C 23,9 C 18,9 C 76 % 0 lf 1014,5 hPa 0,0 l/m 5,8 km/h (2 Bft) SO 142 2 min 0 min 0,000 mm 0,0 UV-I 291 W/m 17,4 C 21,8 C 8,0 km/h (2 Bft)
26.09.2021 15:16 21,7 C 23,9 C 18,9 C 77 % 0 lf 1014,5 hPa 0,0 l/m 5,4 km/h (2 Bft) O 94 2 min 0 min 0,000 mm 0,0 UV-I 294 W/m 17,5 C 21,7 C 9,7 km/h (2 Bft)
26.09.2021 15:14 21,6 C 23,9 C 18,9 C 77 % 0 lf 1014,5 hPa 0,0 l/m 6,6 km/h (2 Bft) O-SO 111 2 min 0 min 0,000 mm 0,0 UV-I 281 W/m 17,4 C 21,6 C 9,7 km/h (2 Bft)
26.09.2021 15:12 21,4 C 23,3 C 18,9 C 77 % 0 lf 1014,5 hPa 0,0 l/m 3,8 km/h (1 Bft) S-SO 165 0 min 0 min 0,000 mm 0,0 UV-I 271 W/m 17,2 C 21,4 C 8,0 km/h (2 Bft)
26.09.2021 15:10 21,4 C 23,3 C 18,3 C 78 % 0 lf 1014,4 hPa 0,0 l/m 5,8 km/h (2 Bft) S 175 0 min 0 min 0,000 mm 0,0 UV-I 260 W/m 17,4 C 21,4 C 9,7 km/h (2 Bft)
26.09.2021 15:08 21,4 C 23,3 C 18,3 C 78 % 0 lf 1014,4 hPa 0,0 l/m 4,0 km/h (1 Bft) SO 130 0 min 0 min 0,000 mm 0,0 UV-I 259 W/m 17,4 C 21,4 C 6,4 km/h (2 Bft)
26.09.2021 15:06 21,3 C 22,8 C 18,3 C 79 % 0 lf 1014,4 hPa 0,0 l/m 5,4 km/h (2 Bft) S-SO 147 0 min 0 min 0,000 mm 0,0 UV-I 263 W/m 17,5 C 21,3 C 11,3 km/h (2 Bft)
26.09.2021 15:04 21,3 C 22,8 C 18,3 C 78 % 0 lf 1014,5 hPa 0,0 l/m 5,1 km/h (1 Bft) SO 141 0 min 0 min 0,000 mm 0,0 UV-I 240 W/m 17,3 C 21,3 C 8,0 km/h (2 Bft)
26.09.2021 15:02 21,2 C 22,2 C 18,3 C 79 % 0 lf 1014,4 hPa 0,0 l/m 3,9 km/h (1 Bft) SO 136 0 min 0 min 0,000 mm 0,0 UV-I 213 W/m 17,4 C 21,2 C 6,4 km/h (2 Bft)
26.09.2021 15:00 21,2 C 22,2 C 18,3 C 78 % 0 lf 1014,4 hPa 0,0 l/m 4,3 km/h (1 Bft) O-NO 78 0 min 0 min 0,152 mm 0,0 UV-I 204 W/m 17,2 C 21,2 C 6,4 km/h (2 Bft)
26.09.2021 14:58 21,2 C 22,2 C 18,3 C 78 % 0 lf 1014,5 hPa 0,0 l/m 5,8 km/h (2 Bft) SO 127 0 min 0 min 0,000 mm 0,0 UV-I 192 W/m 17,2 C 21,2 C 12,9 km/h (3 Bft)
26.09.2021 14:56 21,2 C 22,2 C 18,3 C 78 % 0 lf 1014,4 hPa 0,0 l/m 4,9 km/h (1 Bft) SO 130 0 min 0 min 0,000 mm 0,0 UV-I 195 W/m 17,2 C 21,2 C 11,3 km/h (2 Bft)
26.09.2021 14:54 21,1 C 22,2 C 18,3 C 78 % 0 lf 1014,5 hPa 0,0 l/m 5,7 km/h (2 Bft) O-SO 123 0 min 0 min 0,000 mm 0,0 UV-I 200 W/m 17,1 C 21,1 C 9,7 km/h (2 Bft)
26.09.2021 14:52 21,1 C 22,2 C 18,3 C 78 % 0 lf 1014,4 hPa 0,0 l/m 3,9 km/h (1 Bft) SO 129 0 min 0 min 0,000 mm 0,0 UV-I 201 W/m 17,1 C 21,1 C 6,4 km/h (2 Bft)
26.09.2021 14:50 21,1 C 22,2 C 18,3 C 78 % 0 lf 1014,4 hPa 0,0 l/m 3,5 km/h (1 Bft) S-SO 149 0 min 0 min 0,000 mm 0,0 UV-I 198 W/m 17,1 C 21,1 C 6,4 km/h (2 Bft)
26.09.2021 14:48 21,2 C 22,2 C 18,3 C 78 % 0 lf 1014,4 hPa 0,0 l/m 6,9 km/h (2 Bft) O 98 0 min 0 min 0,000 mm 0,0 UV-I 196 W/m 17,2 C 21,2 C 11,3 km/h (2 Bft)
26.09.2021 14:46 21,2 C 22,8 C 18,3 C 77 % 0 lf 1014,4 hPa 0,0 l/m 7,0 km/h (2 Bft) SO 134 0 min 0 min 0,000 mm 0,0 UV-I 208 W/m 17,0 C 21,2 C 11,3 km/h (2 Bft)
26.09.2021 14:44 21,2 C 22,8 C 18,3 C 78 % 0 lf 1014,4 hPa 0,0 l/m 4,9 km/h (1 Bft) SO 128 0 min 0 min 0,000 mm 0,1 UV-I 233 W/m 17,2 C 21,2 C 8,0 km/h (2 Bft)
26.09.2021 14:42 21,1 C 22,2 C 18,3 C 79 % 0 lf 1014,3 hPa 0,0 l/m 3,9 km/h (1 Bft) S-SO 155 0 min 0 min 0,000 mm 0,1 UV-I 249 W/m 17,3 C 21,1 C 6,4 km/h (2 Bft)
26.09.2021 14:40 21,1 C 22,2 C 18,3 C 79 % 0 lf 1014,3 hPa 0,0 l/m 5,1 km/h (1 Bft) SO 138 0 min 0 min 0,000 mm 0,0 UV-I 242 W/m 17,3 C 21,1 C 8,0 km/h (2 Bft)
26.09.2021 14:38 20,9 C 22,2 C 18,3 C 79 % 0 lf 1014,2 hPa 0,0 l/m 2,0 km/h (1 Bft) O-SO 120 0 min 0 min 0,000 mm 0,0 UV-I 236 W/m 17,1 C 20,9 C 4,8 km/h (1 Bft)
26.09.2021 14:36 20,9 C 22,2 C 18,3 C 78 % 0 lf 1014,2 hPa 0,0 l/m 3,5 km/h (1 Bft) SO 124 0 min 0 min 0,000 mm 0,0 UV-I 238 W/m 16,9 C 20,9 C 8,0 km/h (2 Bft)
26.09.2021 14:34 20,8 C 22,2 C 18,3 C 78 % 0 lf 1014,2 hPa 0,0 l/m 3,9 km/h (1 Bft) O-SO 122 0 min 0 min 0,000 mm 0,0 UV-I 234 W/m 16,8 C 20,8 C 6,4 km/h (2 Bft)
26.09.2021 14:32 20,8 C 22,2 C 18,3 C 78 % 0 lf 1014,2 hPa 0,0 l/m 5,1 km/h (1 Bft) N-NW 336 0 min 0 min 0,000 mm 0,0 UV-I 223 W/m 16,8 C 20,8 C 8,0 km/h (2 Bft)
26.09.2021 14:30 20,8 C 22,2 C 18,3 C 78 % 0 lf 1014,3 hPa 0,0 l/m 6,4 km/h (2 Bft) O-SO 102 0 min 0 min 0,000 mm 0,0 UV-I 210 W/m 16,8 C 20,8 C 9,7 km/h (2 Bft)
26.09.2021 14:28 20,9 C 22,2 C 18,3 C 78 % 0 lf 1014,3 hPa 0,0 l/m 7,0 km/h (2 Bft) O-SO 114 0 min 0 min 0,000 mm 0,0 UV-I 202 W/m 16,9 C 20,9 C 9,7 km/h (2 Bft)
26.09.2021 14:26 20,9 C 22,2 C 18,3 C 78 % 0 lf 1014,3 hPa 0,0 l/m 4,1 km/h (1 Bft) SO 146 0 min 0 min 0,000 mm 0,0 UV-I 189 W/m 16,9 C 20,9 C 8,0 km/h (2 Bft)
26.09.2021 14:24 20,9 C 22,2 C 18,3 C 78 % 0 lf 1014,4 hPa 0,0 l/m 5,2 km/h (1 Bft) SO 128 0 min 0 min 0,000 mm 0,0 UV-I 184 W/m 16,9 C 20,9 C 8,0 km/h (2 Bft)
26.09.2021 14:22 20,9 C 22,2 C 18,3 C 78 % 0 lf 1014,3 hPa 0,0 l/m 5,6 km/h (2 Bft) O-SO 117 0 min 0 min 0,000 mm 0,2 UV-I 195 W/m 16,9 C 20,9 C 11,3 km/h (2 Bft)
26.09.2021 14:20 20,9 C 22,2 C 18,3 C 78 % 0 lf 1014,3 hPa 0,0 l/m 3,4 km/h (1 Bft) SO 127 0 min 0 min 0,000 mm 0,5 UV-I 211 W/m 16,9 C 20,9 C 6,4 km/h (2 Bft)
26.09.2021 14:18 20,9 C 22,2 C 18,3 C 78 % 0 lf 1014,3 hPa 0,0 l/m 5,2 km/h (1 Bft) SO 131 0 min 0 min 0,000 mm 0,5 UV-I 213 W/m 16,9 C 20,9 C 8,0 km/h (2 Bft)
26.09.2021 14:16 21,0 C 22,2 C 18,3 C 78 % 0 lf 1014,4 hPa 0,0 l/m 5,4 km/h (2 Bft) SO 138 0 min 0 min 0,000 mm 0,1 UV-I 206 W/m 17,0 C 21,0 C 11,3 km/h (2 Bft)
26.09.2021 14:14 20,9 C 22,2 C 18,3 C 78 % 0 lf 1014,4 hPa 0,0 l/m 5,3 km/h (1 Bft) O 96 0 min 0 min 0,000 mm 0,0 UV-I 197 W/m 16,9 C 20,9 C 9,7 km/h (2 Bft)
26.09.2021 14:12 20,9 C 22,2 C 18,3 C 78 % 0 lf 1014,4 hPa 0,0 l/m 4,6 km/h (1 Bft) O-SO 109 0 min 0 min 0,000 mm 0,2 UV-I 197 W/m 16,9 C 20,9 C 8,0 km/h (2 Bft)
26.09.2021 14:10 21,0 C 22,8 C 18,3 C 77 % 0 lf 1014,3 hPa 0,0 l/m 3,0 km/h (1 Bft) O-SO 115 0 min 0 min 0,000 mm 0,5 UV-I 201 W/m 16,8 C 21,0 C 6,4 km/h (2 Bft)
26.09.2021 14:08 21,1 C 22,8 C 18,3 C 77 % 0 lf 1014,3 hPa 0,0 l/m 3,6 km/h (1 Bft) O-SO 122 0 min 0 min 0,000 mm 0,7 UV-I 204 W/m 16,9 C 21,1 C 9,7 km/h (2 Bft)
26.09.2021 14:06 21,2 C 23,3 C 17,8 C 77 % 0 lf 1014,2 hPa 0,0 l/m 2,7 km/h (1 Bft) NO 51 0 min 0 min 0,000 mm 0,8 UV-I 216 W/m 17,0 C 21,2 C 4,8 km/h (1 Bft)
26.09.2021 14:04 21,2 C 23,3 C 17,8 C 76 % 0 lf 1014,2 hPa 0,0 l/m 4,2 km/h (1 Bft) O-SO 123 0 min 0 min 0,000 mm 1,0 UV-I 246 W/m 16,8 C 21,2 C 6,4 km/h (2 Bft)
26.09.2021 14:02 21,3 C 23,3 C 17,8 C 77 % 0 lf 1014,3 hPa 0,0 l/m 4,6 km/h (1 Bft) O-SO 104 2 min 0 min 0,229 mm 1,1 UV-I 313 W/m 17,1 C 21,3 C 8,0 km/h (2 Bft)
26.09.2021 14:00 21,2 C 23,3 C 17,8 C 78 % 0 lf 1014,3 hPa 0,0 l/m 3,0 km/h (1 Bft) SO 134 2 min 0 min 0,000 mm 1,1 UV-I 397 W/m 17,2 C 21,2 C 4,8 km/h (1 Bft)
26.09.2021 13:58 21,0 C 22,8 C 17,8 C 78 % 0 lf 1014,5 hPa 0,0 l/m 5,0 km/h (1 Bft) O 87 0 min 0 min 0,000 mm 0,8 UV-I 309 W/m 17,0 C 21,0 C 8,0 km/h (2 Bft)
26.09.2021 13:56 20,9 C 22,2 C 17,8 C 78 % 0 lf 1014,5 hPa 0,0 l/m 5,0 km/h (1 Bft) O-SO 103 0 min 0 min 0,000 mm 0,5 UV-I 248 W/m 16,9 C 20,9 C 8,0 km/h (2 Bft)
26.09.2021 13:54 20,9 C 22,2 C 17,8 C 77 % 0 lf 1014,6 hPa 0,0 l/m 4,3 km/h (1 Bft) SO 139 0 min 0 min 0,000 mm 0,0 UV-I 171 W/m 16,7 C 20,9 C 6,4 km/h (2 Bft)
26.09.2021 13:52 20,9 C 22,2 C 17,8 C 77 % 0 lf 1014,6 hPa 0,0 l/m 4,3 km/h (1 Bft) SO 146 0 min 0 min 0,000 mm 0,0 UV-I 156 W/m 16,7 C 20,9 C 8,0 km/h (2 Bft)
26.09.2021 13:50 20,9 C 22,2 C 17,8 C 76 % 0 lf 1014,6 hPa 0,0 l/m 8,1 km/h (2 Bft) O-SO 106 0 min 0 min 0,000 mm 0,5 UV-I 173 W/m 16,5 C 20,9 C 12,9 km/h (3 Bft)
26.09.2021 13:48 21,1 C 22,2 C 17,8 C 77 % 0 lf 1014,6 hPa 0,0 l/m 5,9 km/h (2 Bft) SO 140 0 min 0 min 0,000 mm 0,7 UV-I 197 W/m 16,9 C 21,1 C 12,9 km/h (3 Bft)
26.09.2021 13:46 21,1 C 22,8 C 17,8 C 76 % 0 lf 1014,6 hPa 0,0 l/m 4,8 km/h (1 Bft) O-SO 121 0 min 0 min 0,000 mm 0,8 UV-I 222 W/m 16,7 C 21,1 C 9,7 km/h (2 Bft)
26.09.2021 13:44 21,1 C 22,8 C 17,8 C 75 % 0 lf 1014,7 hPa 0,0 l/m 5,2 km/h (1 Bft) S-SO 148 0 min 0 min 0,000 mm 0,9 UV-I 251 W/m 16,5 C 21,1 C 9,7 km/h (2 Bft)
26.09.2021 13:42 21,2 C 23,3 C 17,8 C 75 % 0 lf 1014,7 hPa 0,0 l/m 6,4 km/h (2 Bft) O-SO 121 0 min 0 min 0,000 mm 1,0 UV-I 269 W/m 16,6 C 21,2 C 12,9 km/h (3 Bft)
26.09.2021 13:40 21,5 C 23,9 C 17,8 C 75 % 0 lf 1014,7 hPa 0,0 l/m 9,5 km/h (2 Bft) S-SO 161 0 min 0 min 0,000 mm 1,1 UV-I 277 W/m 16,9 C 21,5 C 16,1 km/h (3 Bft)
26.09.2021 13:38 21,6 C 24,4 C 17,8 C 75 % 0 lf 1014,6 hPa 0,0 l/m 8,8 km/h (2 Bft) SO 144 2 min 0 min 0,000 mm 1,4 UV-I 691 W/m 17,0 C 21,6 C 16,1 km/h (3 Bft)
26.09.2021 13:36 21,6 C 24,4 C 17,8 C 75 % 0 lf 1014,7 hPa 0,0 l/m 9,3 km/h (2 Bft) S-SO 150 2 min 0 min 0,000 mm 1,7 UV-I 691 W/m 17,0 C 21,6 C 14,5 km/h (3 Bft)
26.09.2021 13:34 21,6 C 23,9 C 17,2 C 75 % 0 lf 1014,6 hPa 0,0 l/m 8,3 km/h (2 Bft) S-SO 167 2 min 0 min 0,000 mm 1,7 UV-I 689 W/m 17,0 C 21,6 C 14,5 km/h (3 Bft)
26.09.2021 13:32 21,6 C 23,9 C 17,2 C 77 % 0 lf 1014,5 hPa 0,0 l/m 7,0 km/h (2 Bft) S-SO 160 2 min 0 min 0,000 mm 1,7 UV-I 654 W/m 17,4 C 21,6 C 12,9 km/h (3 Bft)
26.09.2021 13:30 21,3 C 23,9 C 17,2 C 77 % 0 lf 1014,5 hPa 0,0 l/m 7,1 km/h (2 Bft) O-SO 115 2 min 0 min 0,000 mm 1,7 UV-I 511 W/m 17,1 C 21,3 C 12,9 km/h (3 Bft)
26.09.2021 13:28 21,3 C 23,3 C 17,2 C 76 % 0 lf 1014,5 hPa 0,0 l/m 5,7 km/h (2 Bft) S-SO 163 2 min 0 min 0,000 mm 1,3 UV-I 383 W/m 16,9 C 21,3 C 11,3 km/h (2 Bft)
26.09.2021 13:26 21,2 C 23,9 C 17,2 C 76 % 0 lf 1014,5 hPa 0,0 l/m 5,4 km/h (2 Bft) O 97 2 min 0 min 0,000 mm 1,3 UV-I 378 W/m 16,8 C 21,2 C 9,7 km/h (2 Bft)
26.09.2021 13:24 21,2 C 23,9 C 17,2 C 77 % 0 lf 1014,5 hPa 0,0 l/m 4,8 km/h (1 Bft) S-SO 161 2 min 0 min 0,000 mm 1,4 UV-I 405 W/m 17,0 C 21,2 C 8,0 km/h (2 Bft)
26.09.2021 13:22 21,1 C 23,9 C 17,2 C 77 % 0 lf 1014,5 hPa 0,0 l/m 3,7 km/h (1 Bft) O-SO 105 2 min 0 min 0,000 mm 1,4 UV-I 445 W/m 16,9 C 21,1 C 6,4 km/h (2 Bft)
26.09.2021 13:20 20,9 C 23,9 C 17,2 C 77 % 0 lf 1014,5 hPa 0,0 l/m 4,5 km/h (1 Bft) O 98 2 min 0 min 0,000 mm 1,5 UV-I 431 W/m 16,7 C 20,9 C 8,0 km/h (2 Bft)
26.09.2021 13:18 20,9 C 23,3 C 17,2 C 77 % 0 lf 1014,6 hPa 0,0 l/m 5,7 km/h (2 Bft) O-SO 108 2 min 0 min 0,000 mm 1,2 UV-I 372 W/m 16,7 C 20,9 C 11,3 km/h (2 Bft)
26.09.2021 13:16 20,8 C 23,3 C 17,2 C 76 % 0 lf 1014,5 hPa 0,0 l/m 6,5 km/h (2 Bft) SO 146 2 min 0 min 0,000 mm 1,2 UV-I 417 W/m 16,4 C 20,8 C 11,3 km/h (2 Bft)
26.09.2021 13:14 20,7 C 23,3 C 17,2 C 77 % 0 lf 1014,6 hPa 0,0 l/m 5,7 km/h (2 Bft) O 91 2 min 0 min 0,000 mm 1,3 UV-I 441 W/m 16,5 C 20,7 C 11,3 km/h (2 Bft)
26.09.2021 13:12 20,7 C 23,3 C 17,2 C 77 % 0 lf 1014,7 hPa 0,0 l/m 5,5 km/h (2 Bft) SO 145 2 min 0 min 0,000 mm 1,1 UV-I 393 W/m 16,5 C 20,7 C 11,3 km/h (2 Bft)
26.09.2021 13:10 20,7 C 22,8 C 17,2 C 77 % 0 lf 1014,7 hPa 0,0 l/m 5,2 km/h (1 Bft) O-SO 112 2 min 0 min 0,000 mm 1,0 UV-I 352 W/m 16,5 C 20,7 C 9,7 km/h (2 Bft)
26.09.2021 13:08 20,7 C 22,8 C 17,2 C 77 % 0 lf 1014,7 hPa 0,0 l/m 5,2 km/h (1 Bft) SO 125 2 min 0 min 0,000 mm 0,9 UV-I 331 W/m 16,5 C 20,7 C 8,0 km/h (2 Bft)
26.09.2021 13:06 20,7 C 22,8 C 17,2 C 78 % 0 lf 1014,7 hPa 0,0 l/m 4,4 km/h (1 Bft) S-SW 197 2 min 0 min 0,000 mm 0,9 UV-I 327 W/m 16,7 C 20,7 C 8,0 km/h (2 Bft)
26.09.2021 13:04 20,7 C 22,8 C 17,2 C 78 % 0 lf 1014,7 hPa 0,0 l/m 3,3 km/h (1 Bft) O-SO 107 0 min 0 min 0,000 mm 0,8 UV-I 311 W/m 16,7 C 20,7 C 6,4 km/h (2 Bft)
26.09.2021 13:02 20,6 C 22,8 C 16,7 C 78 % 0 lf 1014,6 hPa 0,0 l/m 2,1 km/h (1 Bft) SO 127 0 min 0 min 0,000 mm 0,9 UV-I 311 W/m 16,6 C 20,6 C 4,8 km/h (1 Bft)
26.09.2021 13:00 20,6 C 22,8 C 16,7 C 77 % 0 lf 1014,6 hPa 0,0 l/m 3,2 km/h (1 Bft) SO 132 2 min 0 min 0,203 mm 1,0 UV-I 318 W/m 16,4 C 20,6 C 8,0 km/h (2 Bft)
26.09.2021 12:58 20,7 C 23,3 C 16,7 C 77 % 0 lf 1014,6 hPa 0,0 l/m 6,0 km/h (2 Bft) O-SO 105 2 min 0 min 0,000 mm 1,1 UV-I 350 W/m 16,5 C 20,7 C 8,0 km/h (2 Bft)
26.09.2021 12:56 20,7 C 23,3 C 16,7 C 77 % 0 lf 1014,6 hPa 0,0 l/m 5,1 km/h (1 Bft) O-NO 60 2 min 0 min 0,000 mm 1,3 UV-I 402 W/m 16,5 C 20,7 C 9,7 km/h (2 Bft)
26.09.2021 12:54 20,6 C 23,3 C 16,7 C 77 % 0 lf 1014,6 hPa 0,0 l/m 5,2 km/h (1 Bft) O-SO 113 2 min 0 min 0,000 mm 1,2 UV-I 373 W/m 16,4 C 20,6 C 11,3 km/h (2 Bft)
26.09.2021 12:52 20,6 C 22,8 C 16,7 C 77 % 0 lf 1014,6 hPa 0,0 l/m 4,7 km/h (1 Bft) O 83 2 min 0 min 0,000 mm 1,3 UV-I 435 W/m 16,4 C 20,6 C 11,3 km/h (2 Bft)
26.09.2021 12:50 20,6 C 22,8 C 16,7 C 78 % 0 lf 1014,6 hPa 0,0 l/m 5,0 km/h (1 Bft) SO 134 2 min 0 min 0,000 mm 1,3 UV-I 403 W/m 16,6 C 20,6 C 8,0 km/h (2 Bft)
26.09.2021 12:48 20,4 C 22,2 C 16,7 C 77 % 0 lf 1014,6 hPa 0,0 l/m 6,8 km/h (2 Bft) S 182 2 min 0 min 0,000 mm 1,2 UV-I 370 W/m 16,2 C 20,4 C 11,3 km/h (2 Bft)
26.09.2021 12:46 20,4 C 22,2 C 16,7 C 76 % 0 lf 1014,6 hPa 0,0 l/m 7,1 km/h (2 Bft) O 96 2 min 0 min 0,000 mm 1,2 UV-I 361 W/m 16,0 C 20,4 C 11,3 km/h (2 Bft)
26.09.2021 12:44 20,4 C 22,2 C 16,7 C 78 % 0 lf 1014,5 hPa 0,0 l/m 3,7 km/h (1 Bft) SO 143 2 min 0 min 0,000 mm 1,3 UV-I 394 W/m 16,4 C 20,4 C 6,4 km/h (2 Bft)
26.09.2021 12:42 20,3 C 22,2 C 16,7 C 78 % 0 lf 1014,6 hPa 0,0 l/m 3,5 km/h (1 Bft) SO 132 2 min 0 min 0,000 mm 1,2 UV-I 382 W/m 16,3 C 20,3 C 8,0 km/h (2 Bft)
26.09.2021 12:40 20,2 C 22,2 C 16,7 C 77 % 0 lf 1014,6 hPa 0,0 l/m 6,6 km/h (2 Bft) O 96 2 min 0 min 0,000 mm 1,2 UV-I 391 W/m 16,0 C 20,2 C 11,3 km/h (2 Bft)
26.09.2021 12:38 20,2 C 22,2 C 16,7 C 78 % 0 lf 1014,6 hPa 0,0 l/m 5,1 km/h (1 Bft) S-SO 149 2 min 0 min 0,000 mm 1,3 UV-I 387 W/m 16,2 C 20,2 C 9,7 km/h (2 Bft)
26.09.2021 12:36 20,1 C 21,7 C 16,7 C 78 % 0 lf 1014,7 hPa 0,0 l/m 5,1 km/h (1 Bft) S 185 2 min 0 min 0,000 mm 1,2 UV-I 406 W/m 16,1 C 20,1 C 9,7 km/h (2 Bft)
26.09.2021 12:34 20,1 C 21,7 C 16,7 C 78 % 0 lf 1014,7 hPa 0,0 l/m 5,1 km/h (1 Bft) SO 130 2 min 0 min 0,000 mm 1,1 UV-I 351 W/m 16,1 C 20,1 C 9,7 km/h (2 Bft)
26.09.2021 12:32 20,1 C 21,7 C 16,7 C 78 % 0 lf 1014,7 hPa 0,0 l/m 6,3 km/h (2 Bft) O-SO 111 2 min 0 min 0,000 mm 1,0 UV-I 326 W/m 16,1 C 20,1 C 11,3 km/h (2 Bft)
26.09.2021 12:30 19,9 C 21,7 C 16,7 C 78 % 0 lf 1014,8 hPa 0,0 l/m 5,2 km/h (1 Bft) O-SO 120 0 min 0 min 0,000 mm 0,9 UV-I 311 W/m 15,9 C 19,9 C 8,0 km/h (2 Bft)
26.09.2021 12:28 19,9 C 21,7 C 16,7 C 78 % 0 lf 1014,8 hPa 0,0 l/m 7,7 km/h (2 Bft) SO 145 0 min 0 min 0,000 mm 0,8 UV-I 298 W/m 15,9 C 19,9 C 9,7 km/h (2 Bft)
26.09.2021 12:26 19,8 C 21,7 C 16,7 C 78 % 0 lf 1014,8 hPa 0,0 l/m 6,8 km/h (2 Bft) O 91 0 min 0 min 0,000 mm 0,9 UV-I 298 W/m 15,8 C 19,8 C 14,5 km/h (3 Bft)
26.09.2021 12:24 19,8 C 21,7 C 16,7 C 79 % 0 lf 1014,8 hPa 0,0 l/m 5,2 km/h (1 Bft) S-SW 211 2 min 0 min 0,000 mm 0,9 UV-I 313 W/m 16,0 C 19,8 C 8,0 km/h (2 Bft)
26.09.2021 12:22 19,8 C 21,1 C 16,1 C 79 % 0 lf 1014,8 hPa 0,0 l/m 6,6 km/h (2 Bft) S 172 2 min 0 min 0,000 mm 0,9 UV-I 333 W/m 16,0 C 19,8 C 9,7 km/h (2 Bft)
26.09.2021 12:20 19,8 C 21,1 C 16,1 C 79 % 0 lf 1014,8 hPa 0,0 l/m 5,9 km/h (2 Bft) S-SO 160 2 min 0 min 0,000 mm 0,8 UV-I 313 W/m 16,0 C 19,8 C 11,3 km/h (2 Bft)
26.09.2021 12:18 19,9 C 21,1 C 16,1 C 79 % 0 lf 1014,9 hPa 0,0 l/m 6,1 km/h (2 Bft) SO 126 0 min 0 min 0,000 mm 0,6 UV-I 273 W/m 16,1 C 19,9 C 12,9 km/h (3 Bft)
26.09.2021 12:16 19,9 C 21,1 C 16,1 C 79 % 0 lf 1014,9 hPa 0,0 l/m 5,9 km/h (2 Bft) O-SO 117 0 min 0 min 0,000 mm 0,5 UV-I 242 W/m 16,1 C 19,9 C 11,3 km/h (2 Bft)
26.09.2021 12:14 19,9 C 21,1 C 16,1 C 78 % 0 lf 1014,9 hPa 0,0 l/m 5,7 km/h (2 Bft) SO 142 0 min 0 min 0,000 mm 0,5 UV-I 226 W/m 15,9 C 19,9 C 11,3 km/h (2 Bft)
26.09.2021 12:12 20,0 C 21,1 C 16,1 C 78 % 0 lf 1014,9 hPa 0,0 l/m 6,0 km/h (2 Bft) S-SO 148 0 min 0 min 0,000 mm 0,5 UV-I 221 W/m 16,0 C 20,0 C 9,7 km/h (2 Bft)
26.09.2021 12:10 20,0 C 21,1 C 16,1 C 78 % 0 lf 1014,8 hPa 0,0 l/m 6,4 km/h (2 Bft) SO 127 0 min 0 min 0,000 mm 0,6 UV-I 234 W/m 16,0 C 20,0 C 9,7 km/h (2 Bft)
26.09.2021 12:08 19,9 C 20,6 C 16,1 C 78 % 0 lf 1014,8 hPa 0,0 l/m 4,4 km/h (1 Bft) SO 136 0 min 0 min 0,000 mm 0,6 UV-I 237 W/m 15,9 C 19,9 C 8,0 km/h (2 Bft)
26.09.2021 12:06 19,9 C 20,6 C 16,1 C 78 % 0 lf 1014,8 hPa 0,0 l/m 4,4 km/h (1 Bft) SO 138 0 min 0 min 0,000 mm 0,5 UV-I 220 W/m 15,9 C 19,9 C 6,4 km/h (2 Bft)
26.09.2021 12:04 19,9 C 20,6 C 16,1 C 78 % 0 lf 1014,8 hPa 0,0 l/m 5,8 km/h (2 Bft) S-SO 150 0 min 0 min 0,000 mm 0,1 UV-I 193 W/m 15,9 C 19,9 C 9,7 km/h (2 Bft)
26.09.2021 12:02 19,9 C 20,0 C 16,1 C 78 % 0 lf 1014,7 hPa 0,0 l/m 4,4 km/h (1 Bft) SO 126 0 min 0 min 0,000 mm 0,0 UV-I 175 W/m 15,9 C 19,9 C 8,0 km/h (2 Bft)
26.09.2021 12:00 19,9 C 20,0 C 16,1 C 77 % 0 lf 1014,7 hPa 0,0 l/m 5,0 km/h (1 Bft) O-SO 120 0 min 0 min 0,203 mm 0,0 UV-I 167 W/m 15,7 C 19,9 C 8,0 km/h (2 Bft)
26.09.2021 11:58 19,9 C 20,0 C 16,1 C 77 % 0 lf 1014,7 hPa 0,0 l/m 8,3 km/h (2 Bft) SO 146 0 min 0 min 0,000 mm 0,4 UV-I 163 W/m 15,7 C 19,9 C 16,1 km/h (3 Bft)
26.09.2021 11:56 20,0 C 19,4 C 16,1 C 77 % 0 lf 1014,7 hPa 0,0 l/m 5,3 km/h (1 Bft) SO 128 0 min 0 min 0,000 mm 0,5 UV-I 158 W/m 15,8 C 20,0 C 12,9 km/h (3 Bft)
26.09.2021 11:54 20,1 C 19,4 C 16,1 C 77 % 0 lf 1014,7 hPa 0,0 l/m 6,1 km/h (2 Bft) O 91 0 min 0 min 0,000 mm 0,5 UV-I 156 W/m 15,9 C 20,1 C 11,3 km/h (2 Bft)
26.09.2021 11:52 20,2 C 19,4 C 16,1 C 77 % 0 lf 1014,6 hPa 0,0 l/m 5,1 km/h (1 Bft) O 94 0 min 0 min 0,000 mm 0,6 UV-I 160 W/m 16,0 C 20,2 C 12,9 km/h (3 Bft)
26.09.2021 11:50 20,3 C 20,0 C 16,1 C 76 % 0 lf 1014,6 hPa 0,0 l/m 4,1 km/h (1 Bft) SO 136 0 min 0 min 0,000 mm 0,6 UV-I 162 W/m 15,9 C 20,3 C 6,4 km/h (2 Bft)
26.09.2021 11:48 20,4 C 20,0 C 16,1 C 76 % 0 lf 1014,6 hPa 0,0 l/m 4,2 km/h (1 Bft) S-SO 150 0 min 0 min 0,000 mm 0,7 UV-I 178 W/m 16,0 C 20,4 C 6,4 km/h (2 Bft)
26.09.2021 11:46 20,5 C 20,0 C 16,1 C 77 % 0 lf 1014,6 hPa 0,0 l/m 5,9 km/h (2 Bft) O-SO 119 0 min 0 min 0,000 mm 0,7 UV-I 206 W/m 16,3 C 20,5 C 11,3 km/h (2 Bft)
26.09.2021 11:44 20,5 C 20,0 C 16,1 C 76 % 0 lf 1014,6 hPa 0,0 l/m 3,8 km/h (1 Bft) SO 125 0 min 0 min 0,000 mm 0,9 UV-I 273 W/m 16,1 C 20,5 C 8,0 km/h (2 Bft)
26.09.2021 11:42 20,5 C 20,0 C 16,1 C 76 % 0 lf 1014,6 hPa 0,0 l/m 2,8 km/h (1 Bft) N 5 0 min 0 min 0,000 mm 0,9 UV-I 272 W/m 16,1 C 20,5 C 12,9 km/h (3 Bft)
26.09.2021 11:40 20,4 C 20,6 C 16,1 C 76 % 0 lf 1014,7 hPa 0,0 l/m 3,9 km/h (1 Bft) O-SO 109 2 min 0 min 0,000 mm 0,9 UV-I 483 W/m 16,0 C 20,4 C 6,4 km/h (2 Bft)
26.09.2021 11:38 20,4 C 20,6 C 16,1 C 75 % 0 lf 1014,7 hPa 0,0 l/m 5,8 km/h (2 Bft) O 96 2 min 0 min 0,000 mm 0,9 UV-I 496 W/m 15,8 C 20,4 C 12,9 km/h (3 Bft)
26.09.2021 11:36 20,5 C 20,6 C 16,1 C 75 % 0 lf 1014,7 hPa 0,0 l/m 4,8 km/h (1 Bft) S-SO 150 2 min 0 min 0,000 mm 0,8 UV-I 512 W/m 15,9 C 20,5 C 8,0 km/h (2 Bft)
26.09.2021 11:34 20,5 C 21,1 C 16,1 C 76 % 0 lf 1014,7 hPa 0,0 l/m 5,7 km/h (2 Bft) O-SO 120 2 min 0 min 0,000 mm 1,0 UV-I 498 W/m 16,1 C 20,5 C 12,9 km/h (3 Bft)
26.09.2021 11:32 20,4 C 21,1 C 16,1 C 76 % 0 lf 1014,7 hPa 0,0 l/m 4,1 km/h (1 Bft) SO 126 2 min 0 min 0,000 mm 1,1 UV-I 410 W/m 16,0 C 20,4 C 8,0 km/h (2 Bft)
26.09.2021 11:30 20,4 C 21,1 C 16,1 C 77 % 0 lf 1014,7 hPa 0,0 l/m 2,3 km/h (1 Bft) O-NO 73 2 min 0 min 0,000 mm 0,8 UV-I 300 W/m 16,2 C 20,4 C 4,8 km/h (1 Bft)
26.09.2021 11:28 20,3 C 21,1 C 16,1 C 77 % 0 lf 1014,6 hPa 0,0 l/m 2,2 km/h (1 Bft) SO 128 2 min 0 min 0,000 mm 0,8 UV-I 315 W/m 16,1 C 20,3 C 8,0 km/h (2 Bft)
26.09.2021 11:26 20,3 C 21,1 C 16,1 C 78 % 0 lf 1014,7 hPa 0,0 l/m 2,5 km/h (1 Bft) SO 132 2 min 0 min 0,000 mm 0,8 UV-I 349 W/m 16,3 C 20,3 C 4,8 km/h (1 Bft)
26.09.2021 11:24 20,2 C 20,6 C 16,1 C 77 % 0 lf 1014,8 hPa 0,0 l/m 6,9 km/h (2 Bft) NO 52 2 min 0 min 0,000 mm 0,7 UV-I 338 W/m 16,0 C 20,2 C 11,3 km/h (2 Bft)
26.09.2021 11:22 20,2 C 20,0 C 16,1 C 76 % 0 lf 1014,8 hPa 0,0 l/m 9,1 km/h (2 Bft) SO 125 2 min 0 min 0,000 mm 0,7 UV-I 401 W/m 15,8 C 20,2 C 14,5 km/h (3 Bft)
26.09.2021 11:20 20,3 C 20,0 C 16,1 C 77 % 0 lf 1014,8 hPa 0,0 l/m 0,0 km/h (0 Bft) S 180 2 min 0 min 0,000 mm 0,7 UV-I 425 W/m 16,1 C 20,3 C 0,0 km/h (0 Bft)
26.09.2021 11:18 20,2 C 19,4 C 16,1 C 78 % 0 lf 1014,7 hPa 0,0 l/m 0,0 km/h (0 Bft) SO 132 2 min 0 min 0,000 mm 0,6 UV-I 484 W/m 16,2 C 20,2 C 0,0 km/h (0 Bft)
26.09.2021 11:16 20,2 C 19,4 C 16,1 C 78 % 0 lf 1014,7 hPa 0,0 l/m 0,1 km/h (0 Bft) O-SO 115 2 min 0 min 0,000 mm 0,6 UV-I 355 W/m 16,2 C 20,2 C 1,6 km/h (1 Bft)
26.09.2021 11:14 20,3 C 19,4 C 16,1 C 78 % 0 lf 1014,8 hPa 0,0 l/m 0,1 km/h (0 Bft) O-SO 119 0 min 0 min 0,000 mm 0,7 UV-I 255 W/m 16,3 C 20,3 C 1,6 km/h (1 Bft)
26.09.2021 11:12 20,3 C 19,4 C 16,1 C 79 % 0 lf 1014,9 hPa 0,0 l/m 0,0 km/h (0 Bft) O 94 0 min 0 min 0,000 mm 0,8 UV-I 183 W/m 16,5 C 20,3 C 0,0 km/h (0 Bft)
26.09.2021 11:10 20,2 C 18,9 C 16,1 C 79 % 0 lf 1014,9 hPa 0,0 l/m 0,0 km/h (0 Bft) SO 144 2 min 0 min 0,000 mm 0,8 UV-I 311 W/m 16,4 C 20,2 C 0,0 km/h (0 Bft)
26.09.2021 11:08 20,0 C 18,9 C 16,1 C 80 % 0 lf 1015,0 hPa 0,0 l/m 0,0 km/h (0 Bft) O-SO 118 2 min 0 min 0,000 mm 0,7 UV-I 409 W/m 16,4 C 20,0 C 0,0 km/h (0 Bft)
26.09.2021 11:06 19,8 C 18,3 C 16,1 C 80 % 0 lf 1015,0 hPa 0,0 l/m 0,0 km/h (0 Bft) N 360 2 min 0 min 0,000 mm 0,7 UV-I 422 W/m 16,2 C 19,8 C 0,0 km/h (0 Bft)
26.09.2021 11:04 19,7 C 18,3 C 16,1 C 81 % 0 lf 1014,9 hPa 0,0 l/m 0,0 km/h (0 Bft) O-NO 65 2 min 0 min 0,000 mm 0,7 UV-I 412 W/m 16,3 C 19,7 C 0,0 km/h (0 Bft)
26.09.2021 11:02 19,7 C 18,3 C 16,1 C 80 % 0 lf 1014,9 hPa 0,0 l/m 0,0 km/h (0 Bft) S-SO 164 2 min 0 min 0,178 mm 0,7 UV-I 404 W/m 16,1 C 19,7 C 0,0 km/h (0 Bft)
26.09.2021 11:00 19,7 C 18,3 C 16,1 C 82 % 0 lf 1015,0 hPa 0,0 l/m 0,0 km/h (0 Bft) O-SO 112 2 min 0 min 0,000 mm 0,7 UV-I 401 W/m 16,5 C 19,7 C 0,0 km/h (0 Bft)
26.09.2021 10:58 19,6 C 18,3 C 16,1 C 81 % 0 lf 1015,0 hPa 0,0 l/m 0,0 km/h (0 Bft) N 5 2 min 0 min 0,000 mm 0,7 UV-I 394 W/m 16,2 C 19,6 C 1,6 km/h (1 Bft)
26.09.2021 10:56 19,6 C 18,3 C 16,1 C 81 % 0 lf 1014,9 hPa 0,0 l/m 0,0 km/h (0 Bft) O 94 2 min 0 min 0,000 mm 0,6 UV-I 389 W/m 16,2 C 19,6 C 0,0 km/h (0 Bft)
26.09.2021 10:54 19,4 C 18,3 C 16,1 C 81 % 0 lf 1015,0 hPa 0,0 l/m 0,0 km/h (0 Bft) O-NO 60 2 min 0 min 0,000 mm 0,6 UV-I 385 W/m 16,1 C 19,4 C 0,0 km/h (0 Bft)
26.09.2021 10:52 19,4 C 17,8 C 16,1 C 81 % 0 lf 1014,9 hPa 0,0 l/m 0,0 km/h (0 Bft) SO 128 2 min 0 min 0,000 mm 0,6 UV-I 381 W/m 16,1 C 19,4 C 0,0 km/h (0 Bft)
26.09.2021 10:50 19,4 C 17,8 C 16,1 C 81 % 0 lf 1015,0 hPa 0,0 l/m 0,0 km/h (0 Bft) O-SO 118 2 min 0 min 0,000 mm 0,6 UV-I 374 W/m 16,1 C 19,4 C 1,6 km/h (1 Bft)
26.09.2021 10:48 19,4 C 17,8 C 15,6 C 81 % 0 lf 1015,0 hPa 0,0 l/m 0,0 km/h (0 Bft) SO 128 2 min 0 min 0,000 mm 0,6 UV-I 370 W/m 16,1 C 19,4 C 1,6 km/h (1 Bft)
26.09.2021 10:46 19,4 C 17,8 C 15,6 C 82 % 0 lf 1015,0 hPa 0,0 l/m 0,0 km/h (0 Bft) O-SO 123 2 min 0 min 0,000 mm 0,5 UV-I 364 W/m 16,2 C 19,4 C 0,0 km/h (0 Bft)
26.09.2021 10:44 19,2 C 17,8 C 15,6 C 81 % 0 lf 1015,0 hPa 0,0 l/m 0,0 km/h (0 Bft) SO 136 2 min 0 min 0,000 mm 0,5 UV-I 358 W/m 15,9 C 19,2 C 0,0 km/h (0 Bft)
26.09.2021 10:42 19,2 C 17,8 C 15,6 C 82 % 0 lf 1014,9 hPa 0,0 l/m 0,0 km/h (0 Bft) S-SO 152 2 min 0 min 0,000 mm 0,5 UV-I 351 W/m 16,0 C 19,2 C 0,0 km/h (0 Bft)
26.09.2021 10:40 19,1 C 17,8 C 15,6 C 82 % 0 lf 1015,0 hPa 0,0 l/m 0,0 km/h (0 Bft) S-SO 148 2 min 0 min 0,000 mm 0,5 UV-I 344 W/m 16,0 C 19,1 C 0,0 km/h (0 Bft)
26.09.2021 10:38 19,0 C 17,2 C 15,6 C 82 % 0 lf 1015,0 hPa 0,0 l/m 0,0 km/h (0 Bft) SO 126 2 min 0 min 0,000 mm 0,0 UV-I 338 W/m 15,9 C 19,0 C 0,0 km/h (0 Bft)
26.09.2021 10:36 18,9 C 17,2 C 15,6 C 82 % 0 lf 1015,0 hPa 0,0 l/m 0,0 km/h (0 Bft) SO 132 2 min 0 min 0,000 mm 0,0 UV-I 330 W/m 15,8 C 18,9 C 0,0 km/h (0 Bft)
26.09.2021 10:34 18,9 C 17,2 C 15,6 C 82 % 0 lf 1015,0 hPa 0,0 l/m 0,0 km/h (0 Bft) SO 124 2 min 0 min 0,000 mm 0,0 UV-I 324 W/m 15,8 C 18,9 C 0,0 km/h (0 Bft)
26.09.2021 10:32 18,8 C 16,7 C 15,6 C 83 % 0 lf 1015,0 hPa 0,0 l/m 0,0 km/h (0 Bft) O-SO 109 2 min 0 min 0,000 mm 0,0 UV-I 315 W/m 15,8 C 18,8 C 0,0 km/h (0 Bft)
26.09.2021 10:30 18,8 C 16,7 C 15,6 C 83 % 0 lf 1015,0 hPa 0,0 l/m 0,0 km/h (0 Bft) S-SO 150 2 min 0 min 0,000 mm 0,0 UV-I 309 W/m 15,8 C 18,8 C 0,0 km/h (0 Bft)
26.09.2021 10:28 18,8 C 16,7 C 15,6 C 83 % 0 lf 1015,0 hPa 0,0 l/m 0,0 km/h (0 Bft) O 92 2 min 0 min 0,000 mm 0,0 UV-I 301 W/m 15,8 C 18,8 C 1,6 km/h (1 Bft)
26.09.2021 10:26 18,7 C 16,7 C 15,6 C 83 % 0 lf 1015,0 hPa 0,0 l/m 0,0 km/h (0 Bft) SO 142 2 min 0 min 0,000 mm 0,0 UV-I 294 W/m 15,8 C 18,7 C 0,0 km/h (0 Bft)
26.09.2021 10:24 18,6 C 16,7 C 15,6 C 83 % 0 lf 1015,0 hPa 0,0 l/m 0,0 km/h (0 Bft) NO 42 2 min 0 min 0,000 mm 0,0 UV-I 286 W/m 15,7 C 18,6 C 0,0 km/h (0 Bft)
26.09.2021 10:22 18,6 C 16,7 C 15,6 C 84 % 0 lf 1015,0 hPa 0,0 l/m 0,0 km/h (0 Bft) SO 130 2 min 0 min 0,000 mm 0,0 UV-I 276 W/m 15,8 C 18,6 C 0,0 km/h (0 Bft)
26.09.2021 10:20 18,4 C 16,7 C 15,6 C 84 % 0 lf 1014,9 hPa 0,0 l/m 0,0 km/h (0 Bft) O 96 2 min 0 min 0,000 mm 0,0 UV-I 258 W/m 15,6 C 18,4 C 0,0 km/h (0 Bft)
26.09.2021 10:18 18,4 C 16,7 C 15,6 C 85 % 0 lf 1014,9 hPa 0,0 l/m 0,0 km/h (0 Bft) SO 126 2 min 0 min 0,000 mm 0,0 UV-I 239 W/m 15,8 C 18,4 C 0,0 km/h (0 Bft)
26.09.2021 10:16 18,2 C 16,1 C 15,6 C 85 % 0 lf 1014,9 hPa 0,0 l/m 0,0 km/h (0 Bft) SO 138 2 min 0 min 0,000 mm 0,0 UV-I 247 W/m 15,6 C 18,2 C 1,6 km/h (1 Bft)
26.09.2021 10:14 18,1 C 16,1 C 15,6 C 84 % 0 lf 1014,9 hPa 0,0 l/m 0,0 km/h (0 Bft) O 86 2 min 0 min 0,000 mm 0,0 UV-I 241 W/m 15,4 C 18,1 C 0,0 km/h (0 Bft)
26.09.2021 10:12 18,1 C 16,1 C 15,6 C 85 % 0 lf 1014,8 hPa 0,0 l/m 0,0 km/h (0 Bft) O-SO 109 0 min 0 min 0,000 mm 0,0 UV-I 208 W/m 15,5 C 18,1 C 0,0 km/h (0 Bft)
26.09.2021 10:10 18,0 C 16,1 C 15,6 C 85 % 0 lf 1014,8 hPa 0,0 l/m 0,0 km/h (0 Bft) O-SO 103 0 min 0 min 0,000 mm 0,0 UV-I 206 W/m 15,4 C 18,0 C 0,0 km/h (0 Bft)
26.09.2021 10:08 18,0 C 16,1 C 15,6 C 85 % 0 lf 1014,8 hPa 0,0 l/m 0,0 km/h (0 Bft) O-SO 103 2 min 0 min 0,000 mm 0,0 UV-I 219 W/m 15,4 C 18,0 C 0,0 km/h (0 Bft)
26.09.2021 10:06 17,9 C 16,1 C 15,6 C 85 % 0 lf 1014,7 hPa 0,0 l/m 0,1 km/h (0 Bft) O-SO 109 2 min 0 min 0,000 mm 0,0 UV-I 234 W/m 15,3 C 17,9 C 1,6 km/h (1 Bft)
26.09.2021 10:04 17,9 C 16,1 C 15,6 C 85 % 0 lf 1014,8 hPa 0,0 l/m 0,0 km/h (0 Bft) S-SO 149 2 min 0 min 0,000 mm 0,0 UV-I 240 W/m 15,3 C 17,9 C 0,0 km/h (0 Bft)
26.09.2021 10:02 17,9 C 16,1 C 15,6 C 85 % 0 lf 1014,8 hPa 0,0 l/m 0,0 km/h (0 Bft) O-SO 110 2 min 0 min 0,000 mm 0,0 UV-I 238 W/m 15,3 C 17,9 C 0,0 km/h (0 Bft)
26.09.2021 10:00 17,9 C 16,1 C 15,6 C 85 % 0 lf 1014,8 hPa 0,0 l/m 0,0 km/h (0 Bft) O 86 2 min 0 min 0,102 mm 0,0 UV-I 236 W/m 15,3 C 17,9 C 1,6 km/h (1 Bft)
26.09.2021 09:58 17,8 C 15,6 C 15,6 C 86 % 0 lf 1014,8 hPa 0,0 l/m 0,0 km/h (0 Bft) S-SO 152 2 min 0 min 0,000 mm 0,0 UV-I 233 W/m 15,4 C 17,8 C 1,6 km/h (1 Bft)
26.09.2021 09:56 17,8 C 15,6 C 15,6 C 86 % 0 lf 1014,8 hPa 0,0 l/m 0,0 km/h (0 Bft) O-SO 105 2 min 0 min 0,000 mm 0,0 UV-I 232 W/m 15,4 C 17,8 C 0,0 km/h (0 Bft)
26.09.2021 09:54 17,7 C 15,6 C 15,6 C 86 % 0 lf 1014,7 hPa 0,0 l/m 0,0 km/h (0 Bft) O-SO 113 2 min 0 min 0,000 mm 0,0 UV-I 231 W/m 15,3 C 17,7 C 0,0 km/h (0 Bft)
26.09.2021 09:52 17,7 C 15,6 C 15,6 C 87 % 0 lf 1014,7 hPa 0,0 l/m 0,0 km/h (0 Bft) SO 145 2 min 0 min 0,000 mm 0,0 UV-I 230 W/m 15,5 C 17,7 C 1,6 km/h (1 Bft)
26.09.2021 09:50 17,6 C 15,6 C 15,6 C 87 % 0 lf 1014,7 hPa 0,0 l/m 0,0 km/h (0 Bft) SO 145 2 min 0 min 0,000 mm 0,0 UV-I 230 W/m 15,4 C 17,6 C 0,0 km/h (0 Bft)
26.09.2021 09:48 17,4 C 15,6 C 15,6 C 87 % 0 lf 1014,7 hPa 0,0 l/m 0,0 km/h (0 Bft) S 189 2 min 0 min 0,000 mm 0,0 UV-I 228 W/m 15,2 C 17,4 C 0,0 km/h (0 Bft)
26.09.2021 09:46 17,3 C 15,6 C 15,6 C 87 % 0 lf 1014,7 hPa 0,0 l/m 0,0 km/h (0 Bft) S-SW 199 2 min 0 min 0,000 mm 0,0 UV-I 226 W/m 15,1 C 17,3 C 0,0 km/h (0 Bft)
26.09.2021 09:44 17,3 C 15,6 C 15,6 C 87 % 0 lf 1014,7 hPa 0,0 l/m 0,0 km/h (0 Bft) O 90 2 min 0 min 0,000 mm 0,0 UV-I 224 W/m 15,1 C 17,3 C 0,0 km/h (0 Bft)
26.09.2021 09:42 17,2 C 15,0 C 16,1 C 88 % 0 lf 1014,7 hPa 0,0 l/m 0,1 km/h (0 Bft) O-SO 119 2 min 0 min 0,000 mm 0,0 UV-I 222 W/m 15,2 C 17,2 C 1,6 km/h (1 Bft)
26.09.2021 09:40 17,1 C 15,0 C 16,1 C 88 % 0 lf 1014,7 hPa 0,0 l/m 0,0 km/h (0 Bft) O-SO 102 2 min 0 min 0,000 mm 0,0 UV-I 221 W/m 15,1 C 17,1 C 0,0 km/h (0 Bft)
26.09.2021 09:38 17,1 C 15,0 C 16,1 C 88 % 0 lf 1014,7 hPa 0,0 l/m 0,0 km/h (0 Bft) N-NO 26 2 min 0 min 0,000 mm 0,0 UV-I 220 W/m 15,1 C 17,1 C 0,0 km/h (0 Bft)
26.09.2021 09:36 17,0 C 15,0 C 16,1 C 89 % 0 lf 1014,7 hPa 0,0 l/m 0,0 km/h (0 Bft) O-SO 107 2 min 0 min 0,000 mm 0,0 UV-I 218 W/m 15,2 C 17,0 C 0,0 km/h (0 Bft)
26.09.2021 09:34 16,9 C 15,0 C 16,1 C 89 % 0 lf 1014,7 hPa 0,0 l/m 0,1 km/h (0 Bft) O 97 2 min 0 min 0,000 mm 0,0 UV-I 217 W/m 15,1 C 16,9 C 1,6 km/h (1 Bft)
26.09.2021 09:32 16,8 C 15,0 C 16,1 C 89 % 0 lf 1014,7 hPa 0,0 l/m 0,0 km/h (0 Bft) SO 142 2 min 0 min 0,000 mm 0,0 UV-I 214 W/m 15,0 C 16,8 C 0,0 km/h (0 Bft)
26.09.2021 09:30 16,7 C 15,0 C 16,1 C 89 % 0 lf 1014,7 hPa 0,0 l/m 0,0 km/h (0 Bft) O 95 2 min 0 min 0,000 mm 0,0 UV-I 210 W/m 14,9 C 16,7 C 1,6 km/h (1 Bft)
26.09.2021 09:28 16,7 C 15,0 C 16,1 C 89 % 0 lf 1014,7 hPa 0,0 l/m 0,0 km/h (0 Bft) SO 124 2 min 0 min 0,000 mm 0,0 UV-I 207 W/m 14,9 C 16,7 C 1,6 km/h (1 Bft)
26.09.2021 09:26 16,7 C 14,4 C 16,1 C 89 % 0 lf 1014,7 hPa 0,0 l/m 0,0 km/h (0 Bft) N-NO 18 2 min 0 min 0,000 mm 0,0 UV-I 204 W/m 14,9 C 16,7 C 0,0 km/h (0 Bft)
26.09.2021 09:24 16,6 C 14,4 C 16,1 C 90 % 0 lf 1014,7 hPa 0,0 l/m 0,0 km/h (0 Bft) O 83 2 min 0 min 0,000 mm 0,0 UV-I 200 W/m 15,0 C 16,6 C 1,6 km/h (1 Bft)
26.09.2021 09:22 16,6 C 14,4 C 16,1 C 90 % 0 lf 1014,8 hPa 0,0 l/m 0,0 km/h (0 Bft) N-NO 21 2 min 0 min 0,000 mm 0,0 UV-I 189 W/m 15,0 C 16,6 C 0,0 km/h (0 Bft)
26.09.2021 09:20 16,5 C 14,4 C 16,1 C 90 % 0 lf 1014,8 hPa 0,0 l/m 0,0 km/h (0 Bft) SO 135 2 min 0 min 0,000 mm 0,0 UV-I 162 W/m 14,9 C 16,5 C 0,0 km/h (0 Bft)
26.09.2021 09:18 16,4 C 14,4 C 16,1 C 90 % 0 lf 1014,8 hPa 0,0 l/m 0,0 km/h (0 Bft) O-SO 120 2 min 0 min 0,000 mm 0,0 UV-I 187 W/m 14,8 C 16,4 C 0,0 km/h (0 Bft)
26.09.2021 09:16 16,4 C 14,4 C 16,1 C 91 % 0 lf 1014,8 hPa 0,0 l/m 0,0 km/h (0 Bft) O 98 2 min 0 min 0,000 mm 0,0 UV-I 184 W/m 14,9 C 16,4 C 1,6 km/h (1 Bft)
26.09.2021 09:14 16,3 C 14,4 C 16,1 C 91 % 0 lf 1014,8 hPa 0,0 l/m 0,0 km/h (0 Bft) SO 131 2 min 0 min 0,000 mm 0,0 UV-I 180 W/m 14,8 C 16,3 C 0,0 km/h (0 Bft)
26.09.2021 09:12 16,2 C 14,4 C 16,1 C 91 % 0 lf 1014,8 hPa 0,0 l/m 0,0 km/h (0 Bft) O 82 2 min 0 min 0,000 mm 0,0 UV-I 177 W/m 14,7 C 16,2 C 0,0 km/h (0 Bft)
26.09.2021 09:10 16,1 C 14,4 C 16,1 C 92 % 0 lf 1014,8 hPa 0,0 l/m 0,1 km/h (0 Bft) O-SO 103 2 min 0 min 0,000 mm 0,0 UV-I 155 W/m 14,8 C 16,1 C 1,6 km/h (1 Bft)
26.09.2021 09:08 16,1 C 14,4 C 16,1 C 92 % 0 lf 1014,8 hPa 0,0 l/m 0,1 km/h (0 Bft) SO 145 0 min 0 min 0,000 mm 0,0 UV-I 80 W/m 14,8 C 16,1 C 1,6 km/h (1 Bft)
26.09.2021 09:06 16,0 C 14,4 C 16,1 C 92 % 0 lf 1014,8 hPa 0,0 l/m 0,0 km/h (0 Bft) SO 127 0 min 0 min 0,000 mm 0,0 UV-I 53 W/m 14,7 C 16,0 C 1,6 km/h (1 Bft)
26.09.2021 09:04 15,9 C 14,4 C 16,1 C 92 % 0 lf 1014,8 hPa 0,0 l/m 0,0 km/h (0 Bft) N-NW 345 0 min 0 min 0,000 mm 0,0 UV-I 41 W/m 14,6 C 15,9 C 1,6 km/h (1 Bft)
26.09.2021 09:02 15,8 C 14,4 C 16,1 C 92 % 0 lf 1014,8 hPa 0,0 l/m 0,0 km/h (0 Bft) O-NO 76 0 min 0 min 0,000 mm 0,0 UV-I 39 W/m 14,5 C 15,8 C 0,0 km/h (0 Bft)
26.09.2021 09:00 15,8 C 13,9 C 16,1 C 92 % 0 lf 1014,8 hPa 0,0 l/m 0,0 km/h (0 Bft) SO 138 0 min 0 min 0,025 mm 0,0 UV-I 38 W/m 14,5 C 15,8 C 0,0 km/h (0 Bft)
26.09.2021 08:58 15,8 C 13,9 C 16,1 C 92 % 0 lf 1014,8 hPa 0,0 l/m 0,0 km/h (0 Bft) S-SO 165 0 min 0 min 0,000 mm 0,0 UV-I 34 W/m 14,5 C 15,8 C 0,0 km/h (0 Bft)
26.09.2021 08:56 15,7 C 13,9 C 16,1 C 93 % 0 lf 1014,8 hPa 0,0 l/m 0,0 km/h (0 Bft) O 88 0 min 0 min 0,000 mm 0,0 UV-I 34 W/m 14,6 C 15,7 C 0,0 km/h (0 Bft)
26.09.2021 08:54 15,7 C 13,9 C 16,1 C 93 % 0 lf 1014,9 hPa 0,0 l/m 0,0 km/h (0 Bft) SO 130 0 min 0 min 0,000 mm 0,0 UV-I 36 W/m 14,6 C 15,7 C 0,0 km/h (0 Bft)
26.09.2021 08:52 15,7 C 13,9 C 16,1 C 93 % 0 lf 1014,9 hPa 0,0 l/m 0,0 km/h (0 Bft) O-SO 109 0 min 0 min 0,000 mm 0,0 UV-I 37 W/m 14,6 C 15,7 C 0,0 km/h (0 Bft)
26.09.2021 08:50 15,6 C 13,9 C 16,1 C 93 % 0 lf 1014,8 hPa 0,0 l/m 0,0 km/h (0 Bft) SO 136 0 min 0 min 0,000 mm 0,0 UV-I 35 W/m 14,5 C 15,6 C 0,0 km/h (0 Bft)
26.09.2021 08:48 15,6 C 13,9 C 16,1 C 93 % 0 lf 1014,9 hPa 0,0 l/m 0,0 km/h (0 Bft) SO 126 0 min 0 min 0,000 mm 0,0 UV-I 35 W/m 14,5 C 15,6 C 0,0 km/h (0 Bft)
26.09.2021 08:46 15,5 C 13,9 C 16,1 C 93 % 1 lf 1014,9 hPa 0,0 l/m 0,0 km/h (0 Bft) SO 132 0 min 0 min 0,000 mm 0,0 UV-I 35 W/m 14,4 C 15,5 C 0,0 km/h (0 Bft)
26.09.2021 08:44 15,5 C 13,9 C 16,1 C 93 % 1 lf 1014,9 hPa 0,0 l/m 0,0 km/h (0 Bft) SO 132 0 min 0 min 0,000 mm 0,0 UV-I 33 W/m 14,4 C 15,5 C 1,6 km/h (1 Bft)
26.09.2021 08:42 15,4 C 13,9 C 16,1 C 93 % 1 lf 1014,8 hPa 0,0 l/m 0,0 km/h (0 Bft) O-SO 103 0 min 0 min 0,000 mm 0,0 UV-I 33 W/m 14,3 C 15,4 C 0,0 km/h (0 Bft)
26.09.2021 08:40 15,4 C 13,9 C 16,1 C 94 % 1 lf 1014,8 hPa 0,0 l/m 0,0 km/h (0 Bft) S-SO 154 0 min 0 min 0,000 mm 0,0 UV-I 32 W/m 14,4 C 15,4 C 1,6 km/h (1 Bft)
26.09.2021 08:38 15,4 C 13,9 C 16,1 C 94 % 1 lf 1014,8 hPa 0,0 l/m 0,0 km/h (0 Bft) O-SO 113 0 min 0 min 0,000 mm 0,0 UV-I 31 W/m 14,4 C 15,4 C 0,0 km/h (0 Bft)
26.09.2021 08:36 15,4 C 13,9 C 16,1 C 94 % 1 lf 1014,7 hPa 0,0 l/m 0,2 km/h (0 Bft) S-SO 163 0 min 0 min 0,000 mm 0,0 UV-I 30 W/m 14,4 C 15,4 C 1,6 km/h (1 Bft)
26.09.2021 08:34 15,3 C 13,3 C 16,1 C 94 % 2 lf 1014,7 hPa 0,0 l/m 0,0 km/h (0 Bft) SO 127 0 min 0 min 0,000 mm 0,0 UV-I 30 W/m 14,3 C 15,3 C 0,0 km/h (0 Bft)
26.09.2021 08:32 15,3 C 13,9 C 16,1 C 94 % 2 lf 1014,8 hPa 0,0 l/m 0,0 km/h (0 Bft) O 84 0 min 0 min 0,000 mm 0,0 UV-I 28 W/m 14,3 C 15,3 C 0,0 km/h (0 Bft)
26.09.2021 08:30 15,3 C 13,9 C 16,1 C 94 % 3 lf 1014,8 hPa 0,0 l/m 0,0 km/h (0 Bft) O 82 0 min 0 min 0,000 mm 0,0 UV-I 28 W/m 14,3 C 15,3 C 1,6 km/h (1 Bft)
26.09.2021 08:28 15,2 C 13,3 C 16,1 C 94 % 3 lf 1014,8 hPa 0,0 l/m 0,0 km/h (0 Bft) O 91 0 min 0 min 0,000 mm 0,0 UV-I 28 W/m 14,2 C 15,2 C 0,0 km/h (0 Bft)
26.09.2021 08:26 15,2 C 13,3 C 16,1 C 94 % 4 lf 1014,7 hPa 0,0 l/m 0,0 km/h (0 Bft) O-NO 67 0 min 0 min 0,000 mm 0,0 UV-I 27 W/m 14,2 C 15,2 C 1,6 km/h (1 Bft)
26.09.2021 08:24 15,2 C 13,3 C 16,1 C 94 % 4 lf 1014,8 hPa 0,0 l/m 0,1 km/h (0 Bft) NO 37 0 min 0 min 0,000 mm 0,0 UV-I 26 W/m 14,2 C 15,2 C 1,6 km/h (1 Bft)
26.09.2021 08:22 15,1 C 13,3 C 16,1 C 94 % 5 lf 1014,8 hPa 0,0 l/m 0,0 km/h (0 Bft) O 85 0 min 0 min 0,000 mm 0,0 UV-I 26 W/m 14,1 C 15,1 C 1,6 km/h (1 Bft)
26.09.2021 08:20 15,1 C 13,3 C 16,1 C 94 % 6 lf 1014,8 hPa 0,0 l/m 0,0 km/h (0 Bft) O 85 0 min 0 min 0,000 mm 0,0 UV-I 26 W/m 14,1 C 15,1 C 1,6 km/h (1 Bft)
26.09.2021 08:18 15,1 C 13,3 C 16,1 C 94 % 7 lf 1014,8 hPa 0,0 l/m 0,0 km/h (0 Bft) O 94 0 min 0 min 0,000 mm 0,0 UV-I 25 W/m 14,1 C 15,1 C 1,6 km/h (1 Bft)
26.09.2021 08:16 15,0 C 13,3 C 16,1 C 94 % 8 lf 1014,8 hPa 0,0 l/m 0,0 km/h (0 Bft) O-NO 70 0 min 0 min 0,000 mm 0,0 UV-I 25 W/m 14,0 C 15,0 C 0,0 km/h (0 Bft)
26.09.2021 08:14 15,0 C 13,3 C 16,1 C 95 % 8 lf 1014,9 hPa 0,0 l/m 0,0 km/h (0 Bft) SO 143 0 min 0 min 0,000 mm 0,0 UV-I 24 W/m 14,2 C 15,0 C 0,0 km/h (0 Bft)
26.09.2021 08:12 15,0 C 13,3 C 16,1 C 95 % 9 lf 1014,8 hPa 0,0 l/m 0,0 km/h (0 Bft) O 80 0 min 0 min 0,000 mm 0,0 UV-I 23 W/m 14,2 C 15,0 C 0,0 km/h (0 Bft)
26.09.2021 08:10 14,9 C 13,3 C 16,1 C 94 % 9 lf 1014,8 hPa 0,0 l/m 0,0 km/h (0 Bft) SO 130 0 min 0 min 0,000 mm 0,0 UV-I 23 W/m 13,9 C 14,9 C 0,0 km/h (0 Bft)
26.09.2021 08:08 14,9 C 13,3 C 16,1 C 94 % 9 lf 1014,9 hPa 0,0 l/m 0,0 km/h (0 Bft) S-SO 165 0 min 0 min 0,000 mm 0,0 UV-I 21 W/m 13,9 C 14,9 C 1,6 km/h (1 Bft)
26.09.2021 08:06 14,9 C 13,3 C 16,1 C 94 % 9 lf 1014,8 hPa 0,0 l/m 0,0 km/h (0 Bft) O 101 0 min 0 min 0,000 mm 0,0 UV-I 21 W/m 13,9 C 14,9 C 0,0 km/h (0 Bft)
26.09.2021 08:04 15,0 C 12,8 C 16,1 C 94 % 9 lf 1014,8 hPa 0,0 l/m 0,0 km/h (0 Bft) O-NO 72 0 min 0 min 0,000 mm 0,0 UV-I 21 W/m 14,0 C 15,0 C 0,0 km/h (0 Bft)
26.09.2021 08:02 14,9 C 12,8 C 16,1 C 94 % 9 lf 1014,9 hPa 0,0 l/m 0,0 km/h (0 Bft) O-SO 120 0 min 0 min 0,000 mm 0,0 UV-I 19 W/m 13,9 C 14,9 C 1,6 km/h (1 Bft)
26.09.2021 08:00 14,9 C 12,8 C 16,1 C 94 % 9 lf 1014,9 hPa 0,0 l/m 0,0 km/h (0 Bft) O-NO 62 0 min 0 min 0,000 mm 0,0 UV-I 19 W/m 13,9 C 14,9 C 0,0 km/h (0 Bft)
26.09.2021 07:58 14,9 C 12,8 C 16,1 C 94 % 9 lf 1014,9 hPa 0,0 l/m 0,0 km/h (0 Bft) N-NO 23 0 min 0 min 0,000 mm 0,0 UV-I 19 W/m 13,9 C 14,9 C 0,0 km/h (0 Bft)
26.09.2021 07:56 15,0 C 13,3 C 16,1 C 94 % 9 lf 1014,9 hPa 0,0 l/m 0,0 km/h (0 Bft) O 84 0 min 0 min 0,000 mm 0,0 UV-I 18 W/m 14,0 C 15,0 C 0,0 km/h (0 Bft)
26.09.2021 07:54 14,9 C 13,3 C 16,1 C 94 % 8 lf 1014,9 hPa 0,0 l/m 0,0 km/h (0 Bft) O 83 0 min 0 min 0,000 mm 0,0 UV-I 18 W/m 13,9 C 14,9 C 0,0 km/h (0 Bft)
26.09.2021 07:52 15,0 C 12,8 C 16,1 C 94 % 8 lf 1014,9 hPa 0,0 l/m 0,1 km/h (0 Bft) O-SO 103 0 min 0 min 0,000 mm 0,0 UV-I 18 W/m 14,0 C 15,0 C 1,6 km/h (1 Bft)
26.09.2021 07:50 15,0 C 12,8 C 16,1 C 94 % 8 lf 1014,9 hPa 0,0 l/m 0,0 km/h (0 Bft) SO 132 0 min 0 min 0,000 mm 0,0 UV-I 16 W/m 14,0 C 15,0 C 0,0 km/h (0 Bft)
26.09.2021 07:48 15,1 C 12,8 C 16,1 C 94 % 7 lf 1014,9 hPa 0,0 l/m 0,0 km/h (0 Bft) S-SW 192 0 min 0 min 0,000 mm 0,0 UV-I 15 W/m 14,1 C 15,1 C 0,0 km/h (0 Bft)
26.09.2021 07:46 15,1 C 12,8 C 16,1 C 94 % 7 lf 1014,9 hPa 0,0 l/m 0,0 km/h (0 Bft) S-SO 150 0 min 0 min 0,000 mm 0,0 UV-I 14 W/m 14,1 C 15,1 C 0,0 km/h (0 Bft)
26.09.2021 07:44 15,1 C 12,8 C 16,1 C 94 % 6 lf 1014,9 hPa 0,0 l/m 0,0 km/h (0 Bft) O-SO 112 0 min 0 min 0,000 mm 0,0 UV-I 14 W/m 14,1 C 15,1 C 0,0 km/h (0 Bft)
26.09.2021 07:42 15,1 C 13,3 C 16,1 C 94 % 6 lf 1014,9 hPa 0,0 l/m 0,0 km/h (0 Bft) O-SO 114 0 min 0 min 0,000 mm 0,0 UV-I 12 W/m 14,1 C 15,1 C 0,0 km/h (0 Bft)
26.09.2021 07:40 15,1 C 12,8 C 16,1 C 94 % 5 lf 1014,9 hPa 0,0 l/m 0,0 km/h (0 Bft) SO 127 0 min 0 min 0,000 mm 0,0 UV-I 12 W/m 14,1 C 15,1 C 0,0 km/h (0 Bft)
26.09.2021 07:38 15,1 C 12,8 C 16,1 C 93 % 4 lf 1014,9 hPa 0,0 l/m 0,0 km/h (0 Bft) O 85 0 min 0 min 0,000 mm 0,0 UV-I 12 W/m 14,0 C 15,1 C 0,0 km/h (0 Bft)
26.09.2021 07:36 15,2 C 12,8 C 16,1 C 94 % 4 lf 1014,9 hPa 0,0 l/m 0,0 km/h (0 Bft) O-NO 78 0 min 0 min 0,000 mm 0,0 UV-I 11 W/m 14,2 C 15,2 C 0,0 km/h (0 Bft)
26.09.2021 07:34 15,2 C 12,8 C 16,1 C 93 % 4 lf 1014,9 hPa 0,0 l/m 0,0 km/h (0 Bft) O-NO 78 0 min 0 min 0,000 mm 0,0 UV-I 11 W/m 14,1 C 15,2 C 0,0 km/h (0 Bft)
26.09.2021 07:32 15,2 C 12,8 C 16,1 C 93 % 4 lf 1014,9 hPa 0,0 l/m 0,0 km/h (0 Bft) O-NO 73 0 min 0 min 0,000 mm 0,0 UV-I 9 W/m 14,1 C 15,2 C 0,0 km/h (0 Bft)
26.09.2021 07:30 15,3 C 12,8 C 16,1 C 93 % 3 lf 1014,9 hPa 0,0 l/m 0,0 km/h (0 Bft) O-NO 62 0 min 0 min 0,000 mm 0,0 UV-I 8 W/m 14,2 C 15,3 C 1,6 km/h (1 Bft)
26.09.2021 07:28 15,3 C 12,8 C 16,1 C 93 % 3 lf 1014,9 hPa 0,0 l/m 0,0 km/h (0 Bft) O-NO 76 0 min 0 min 0,000 mm 0,0 UV-I 7 W/m 14,2 C 15,3 C 0,0 km/h (0 Bft)
26.09.2021 07:26 15,3 C 13,3 C 16,1 C 93 % 3 lf 1014,9 hPa 0,0 l/m 0,0 km/h (0 Bft) O-NO 72 0 min 0 min 0,000 mm 0,0 UV-I 6 W/m 14,2 C 15,3 C 1,6 km/h (1 Bft)
26.09.2021 07:24 15,4 C 13,3 C 16,1 C 93 % 3 lf 1015,0 hPa 0,0 l/m 0,0 km/h (0 Bft) SO 133 0 min 0 min 0,000 mm 0,0 UV-I 5 W/m 14,3 C 15,4 C 1,6 km/h (1 Bft)
26.09.2021 07:22 15,4 C 13,3 C 16,1 C 93 % 3 lf 1014,9 hPa 0,0 l/m 0,1 km/h (0 Bft) O 86 0 min 0 min 0,000 mm 0,0 UV-I 5 W/m 14,3 C 15,4 C 1,6 km/h (1 Bft)
26.09.2021 07:20 15,5 C 13,3 C 16,1 C 93 % 2 lf 1015,0 hPa 0,0 l/m 0,0 km/h (0 Bft) O 88 0 min 0 min 0,000 mm 0,0 UV-I 1 W/m 14,4 C 15,5 C 0,0 km/h (0 Bft)
26.09.2021 07:18 15,6 C 13,9 C 16,1 C 93 % 2 lf 1014,9 hPa 0,0 l/m 0,0 km/h (0 Bft) O 88 0 min 0 min 0,000 mm 0,0 UV-I 0 W/m 14,5 C 15,6 C 0,0 km/h (0 Bft)
26.09.2021 07:16 15,6 C 13,9 C 16,1 C 93 % 1 lf 1014,9 hPa 0,0 l/m 0,0 km/h (0 Bft) O 92 0 min 0 min 0,000 mm 0,0 UV-I 0 W/m 14,5 C 15,6 C 0,0 km/h (0 Bft)
26.09.2021 07:14 15,7 C 13,9 C 16,1 C 93 % 1 lf 1014,9 hPa 0,0 l/m 0,0 km/h (0 Bft) O 92 0 min 0 min 0,000 mm 0,0 UV-I 0 W/m 14,6 C 15,7 C 0,0 km/h (0 Bft)
26.09.2021 07:12 15,7 C 13,9 C 16,1 C 93 % 1 lf 1014,9 hPa 0,0 l/m 0,0 km/h (0 Bft) O-SO 116 0 min 0 min 0,000 mm 0,0 UV-I 0 W/m 14,6 C 15,7 C 0,0 km/h (0 Bft)
26.09.2021 07:10 15,7 C 13,9 C 16,1 C 93 % 1 lf 1014,9 hPa 0,0 l/m 0,0 km/h (0 Bft) O-NO 78 0 min 0 min 0,000 mm 0,0 UV-I 0 W/m 14,6 C 15,7 C 1,6 km/h (1 Bft)
26.09.2021 07:08 15,8 C 13,9 C 16,1 C 93 % 1 lf 1014,9 hPa 0,0 l/m 0,0 km/h (0 Bft) SO 127 0 min 0 min 0,000 mm 0,0 UV-I 0 W/m 14,7 C 15,8 C 0,0 km/h (0 Bft)
26.09.2021 07:06 15,8 C 14,4 C 16,1 C 93 % 1 lf 1015,0 hPa 0,0 l/m 0,0 km/h (0 Bft) O 84 0 min 0 min 0,000 mm 0,0 UV-I 0 W/m 14,7 C 15,8 C 0,0 km/h (0 Bft)
26.09.2021 07:04 15,8 C 14,4 C 16,1 C 93 % 1 lf 1014,9 hPa 0,0 l/m 0,0 km/h (0 Bft) O 94 0 min 0 min 0,000 mm 0,0 UV-I 0 W/m 14,7 C 15,8 C 1,6 km/h (1 Bft)
26.09.2021 07:02 15,9 C 14,4 C 16,1 C 93 % 1 lf 1014,9 hPa 0,0 l/m 0,0 km/h (0 Bft) NO 49 0 min 0 min 0,000 mm 0,0 UV-I 0 W/m 14,8 C 15,9 C 0,0 km/h (0 Bft)
26.09.2021 07:00 15,9 C 14,4 C 16,1 C 93 % 1 lf 1014,9 hPa 0,0 l/m 0,0 km/h (0 Bft) NO 49 0 min 0 min 0,000 mm 0,0 UV-I 0 W/m 14,8 C 15,9 C 1,6 km/h (1 Bft)
26.09.2021 06:58 15,9 C 14,4 C 16,1 C 93 % 1 lf 1014,9 hPa 0,0 l/m 0,0 km/h (0 Bft) O 101 0 min 0 min 0,000 mm 0,0 UV-I 0 W/m 14,8 C 15,9 C 0,0 km/h (0 Bft)
26.09.2021 06:56 15,9 C 14,4 C 16,1 C 93 % 1 lf 1014,9 hPa 0,0 l/m 0,0 km/h (0 Bft) O 88 0 min 0 min 0,000 mm 0,0 UV-I 0 W/m 14,8 C 15,9 C 1,6 km/h (1 Bft)
26.09.2021 06:54 16,0 C 14,4 C 16,7 C 93 % 0 lf 1014,9 hPa 0,0 l/m 0,0 km/h (0 Bft) N-NO 30 0 min 0 min 0,000 mm 0,0 UV-I 0 W/m 14,9 C 16,0 C 1,6 km/h (1 Bft)
26.09.2021 06:52 16,0 C 14,4 C 16,7 C 93 % 0 lf 1014,9 hPa 0,0 l/m 0,0 km/h (0 Bft) O 80 0 min 0 min 0,000 mm 0,0 UV-I 0 W/m 14,9 C 16,0 C 0,0 km/h (0 Bft)
26.09.2021 06:50 16,1 C 14,4 C 16,7 C 93 % 0 lf 1014,9 hPa 0,0 l/m 0,0 km/h (0 Bft) O-SO 107 0 min 0 min 0,000 mm 0,0 UV-I 0 W/m 15,0 C 16,1 C 1,6 km/h (1 Bft)
26.09.2021 06:48 16,1 C 15,0 C 16,7 C 93 % 0 lf 1014,9 hPa 0,0 l/m 0,0 km/h (0 Bft) SO 125 0 min 0 min 0,000 mm 0,0 UV-I 0 W/m 15,0 C 16,1 C 0,0 km/h (0 Bft)
26.09.2021 06:46 16,1 C 15,0 C 16,7 C 93 % 0 lf 1014,9 hPa 0,0 l/m 0,0 km/h (0 Bft) O 99 0 min 0 min 0,000 mm 0,0 UV-I 0 W/m 15,0 C 16,1 C 0,0 km/h (0 Bft)
26.09.2021 06:44 16,1 C 15,0 C 16,7 C 93 % 0 lf 1014,9 hPa 0,0 l/m 0,0 km/h (0 Bft) SO 137 0 min 0 min 0,000 mm 0,0 UV-I 0 W/m 15,0 C 16,1 C 0,0 km/h (0 Bft)
26.09.2021 06:42 16,1 C 15,0 C 16,7 C 93 % 0 lf 1014,9 hPa 0,0 l/m 0,0 km/h (0 Bft) SO 144 0 min 0 min 0,000 mm 0,0 UV-I 0 W/m 15,0 C 16,1 C 0,0 km/h (0 Bft)
26.09.2021 06:40 16,1 C 15,0 C 16,7 C 93 % 0 lf 1014,9 hPa 0,0 l/m 0,0 km/h (0 Bft) O-SO 119 0 min 0 min 0,000 mm 0,0 UV-I 0 W/m 15,0 C 16,1 C 0,0 km/h (0 Bft)
26.09.2021 06:38 16,1 C 15,0 C 16,7 C 93 % 0 lf 1014,9 hPa 0,0 l/m 0,0 km/h (0 Bft) SO 140 0 min 0 min 0,000 mm 0,0 UV-I 0 W/m 15,0 C 16,1 C 0,0 km/h (0 Bft)
26.09.2021 06:36 16,1 C 15,0 C 16,7 C 93 % 0 lf 1014,9 hPa 0,0 l/m 0,1 km/h (0 Bft) O 95 0 min 0 min 0,000 mm 0,0 UV-I 0 W/m 15,0 C 16,1 C 1,6 km/h (1 Bft)
26.09.2021 06:34 16,1 C 15,0 C 16,7 C 94 % 0 lf 1014,9 hPa 0,0 l/m 0,0 km/h (0 Bft) O 95 0 min 0 min 0,000 mm 0,0 UV-I 0 W/m 15,1 C 16,1 C 0,0 km/h (0 Bft)
26.09.2021 06:32 16,1 C 15,0 C 16,7 C 94 % 0 lf 1014,9 hPa 0,0 l/m 0,0 km/h (0 Bft) O-NO 68 0 min 0 min 0,000 mm 0,0 UV-I 0 W/m 15,1 C 16,1 C 0,0 km/h (0 Bft)
26.09.2021 06:30 16,1 C 15,0 C 16,7 C 94 % 0 lf 1014,9 hPa 0,0 l/m 0,0 km/h (0 Bft) O-SO 109 0 min 0 min 0,000 mm 0,0 UV-I 0 W/m 15,1 C 16,1 C 0,0 km/h (0 Bft)
26.09.2021 06:28 16,1 C 15,0 C 16,7 C 94 % 0 lf 1014,9 hPa 0,0 l/m 0,0 km/h (0 Bft) O-NO 76 0 min 0 min 0,000 mm 0,0 UV-I 0 W/m 15,1 C 16,1 C 1,6 km/h (1 Bft)
26.09.2021 06:26 16,1 C 15,6 C 16,7 C 94 % 0 lf 1014,9 hPa 0,0 l/m 0,0 km/h (0 Bft) O 98 0 min 0 min 0,000 mm 0,0 UV-I 0 W/m 15,1 C 16,1 C 0,0 km/h (0 Bft)
26.09.2021 06:24 16,1 C 15,6 C 16,7 C 94 % 0 lf 1014,9 hPa 0,0 l/m 0,0 km/h (0 Bft) N-NO 30 0 min 0 min 0,000 mm 0,0 UV-I 0 W/m 15,1 C 16,1 C 0,0 km/h (0 Bft)
26.09.2021 06:22 16,1 C 15,6 C 16,7 C 94 % 0 lf 1014,9 hPa 0,0 l/m 0,0 km/h (0 Bft) O-SO 109 0 min 0 min 0,000 mm 0,0 UV-I 0 W/m 15,1 C 16,1 C 0,0 km/h (0 Bft)
26.09.2021 06:20 16,1 C 15,6 C 16,7 C 94 % 0 lf 1014,9 hPa 0,0 l/m 0,0 km/h (0 Bft) SO 138 0 min 0 min 0,000 mm 0,0 UV-I 0 W/m 15,1 C 16,1 C 0,0 km/h (0 Bft)
26.09.2021 06:18 16,1 C 15,6 C 16,7 C 94 % 0 lf 1014,9 hPa 0,0 l/m 0,0 km/h (0 Bft) O-NO 77 0 min 0 min 0,000 mm 0,0 UV-I 0 W/m 15,1 C 16,1 C 0,0 km/h (0 Bft)
26.09.2021 06:16 16,1 C 15,6 C 16,7 C 94 % 0 lf 1014,9 hPa 0,0 l/m 0,0 km/h (0 Bft) O 84 0 min 0 min 0,000 mm 0,0 UV-I 0 W/m 15,1 C 16,1 C 0,0 km/h (0 Bft)
26.09.2021 06:14 16,1 C 15,6 C 16,7 C 94 % 0 lf 1014,9 hPa 0,0 l/m 0,0 km/h (0 Bft) O-NO 64 0 min 0 min 0,000 mm 0,0 UV-I 0 W/m 15,1 C 16,1 C 0,0 km/h (0 Bft)
26.09.2021 06:12 16,1 C 15,6 C 16,7 C 95 % 0 lf 1014,9 hPa 0,0 l/m 0,1 km/h (0 Bft) O-NO 64 0 min 0 min 0,000 mm 0,0 UV-I 0 W/m 15,3 C 16,1 C 1,6 km/h (1 Bft)
26.09.2021 06:10 16,1 C 15,6 C 16,7 C 95 % 0 lf 1014,9 hPa 0,0 l/m 0,0 km/h (0 Bft) O 92 0 min 0 min 0,000 mm 0,0 UV-I 0 W/m 15,3 C 16,1 C 0,0 km/h (0 Bft)
26.09.2021 06:08 16,1 C 15,6 C 16,7 C 95 % 0 lf 1014,9 hPa 0,0 l/m 0,0 km/h (0 Bft) O-SO 123 0 min 0 min 0,000 mm 0,0 UV-I 0 W/m 15,3 C 16,1 C 1,6 km/h (1 Bft)
26.09.2021 06:06 16,1 C 15,6 C 16,7 C 95 % 0 lf 1014,9 hPa 0,0 l/m 0,0 km/h (0 Bft) O 100 0 min 0 min 0,000 mm 0,0 UV-I 0 W/m 15,3 C 16,1 C 0,0 km/h (0 Bft)
26.09.2021 06:04 16,1 C 15,6 C 16,7 C 95 % 0 lf 1014,9 hPa 0,0 l/m 0,0 km/h (0 Bft) NO 51 0 min 0 min 0,000 mm 0,0 UV-I 0 W/m 15,3 C 16,1 C 0,0 km/h (0 Bft)
26.09.2021 06:02 16,1 C 15,6 C 16,7 C 95 % 0 lf 1014,9 hPa 0,0 l/m 0,0 km/h (0 Bft) O-SO 103 0 min 0 min 0,000 mm 0,0 UV-I 0 W/m 15,3 C 16,1 C 0,0 km/h (0 Bft)
26.09.2021 06:01 16,1 C 15,6 C 16,7 C 95 % 0 lf 1015,0 hPa 0,0 l/m 0,0 km/h (0 Bft) O-SO 103 0 min 0 min 0,000 mm 0,0 UV-I 0 W/m 15,3 C 16,1 C 0,0 km/h (0 Bft)
26.09.2021 05:58 16,1 C 15,6 C 16,7 C 95 % 0 lf 1014,9 hPa 0,0 l/m 0,0 km/h (0 Bft) N-NO 25 0 min 0 min 0,000 mm 0,0 UV-I 0 W/m 15,3 C 16,1 C 0,0 km/h (0 Bft)
26.09.2021 05:56 16,1 C 15,6 C 16,7 C 95 % 0 lf 1014,9 hPa 0,0 l/m 0,0 km/h (0 Bft) O-SO 115 0 min 0 min 0,000 mm 0,0 UV-I 0 W/m 15,3 C 16,1 C 0,0 km/h (0 Bft)
26.09.2021 05:54 16,1 C 15,6 C 16,7 C 95 % 0 lf 1015,0 hPa 0,0 l/m 0,0 km/h (0 Bft) O-NO 72 0 min 0 min 0,000 mm 0,0 UV-I 0 W/m 15,3 C 16,1 C 0,0 km/h (0 Bft)
26.09.2021 05:52 16,1 C 15,6 C 16,7 C 95 % 0 lf 1015,0 hPa 0,0 l/m 0,0 km/h (0 Bft) NO 37 0 min 0 min 0,000 mm 0,0 UV-I 0 W/m 15,3 C 16,1 C 0,0 km/h (0 Bft)
26.09.2021 05:50 16,1 C 15,6 C 16,7 C 95 % 0 lf 1015,0 hPa 0,0 l/m 0,0 km/h (0 Bft) N-NW 344 0 min 0 min 0,000 mm 0,0 UV-I 0 W/m 15,3 C 16,1 C 1,6 km/h (1 Bft)
26.09.2021 05:48 16,1 C 15,6 C 16,7 C 95 % 0 lf 1015,0 hPa 0,0 l/m 0,0 km/h (0 Bft) O-SO 107 0 min 0 min 0,000 mm 0,0 UV-I 0 W/m 15,3 C 16,1 C 1,6 km/h (1 Bft)
26.09.2021 05:46 16,1 C 15,6 C 16,7 C 95 % 0 lf 1014,9 hPa 0,0 l/m 0,0 km/h (0 Bft) O-NO 73 0 min 0 min 0,000 mm 0,0 UV-I 0 W/m 15,3 C 16,1 C 0,0 km/h (0 Bft)
26.09.2021 05:44 16,1 C 15,6 C 16,7 C 95 % 0 lf 1015,0 hPa 0,0 l/m 0,0 km/h (0 Bft) NO 48 0 min 0 min 0,000 mm 0,0 UV-I 0 W/m 15,3 C 16,1 C 0,0 km/h (0 Bft)
26.09.2021 05:42 16,1 C 15,6 C 16,7 C 95 % 0 lf 1015,0 hPa 0,0 l/m 0,0 km/h (0 Bft) O 85 0 min 0 min 0,000 mm 0,0 UV-I 0 W/m 15,3 C 16,1 C 0,0 km/h (0 Bft)
26.09.2021 05:40 16,1 C 15,6 C 16,7 C 95 % 0 lf 1015,0 hPa 0,0 l/m 0,0 km/h (0 Bft) NO 34 0 min 0 min 0,000 mm 0,0 UV-I 0 W/m 15,3 C 16,1 C 0,0 km/h (0 Bft)
26.09.2021 05:38 16,1 C 15,6 C 16,7 C 95 % 0 lf 1015,0 hPa 0,0 l/m 0,0 km/h (0 Bft) NO 45 0 min 0 min 0,000 mm 0,0 UV-I 0 W/m 15,3 C 16,1 C 0,0 km/h (0 Bft)
26.09.2021 05:36 16,0 C 15,6 C 16,7 C 95 % 0 lf 1015,0 hPa 0,0 l/m 0,0 km/h (0 Bft) S-SO 150 0 min 0 min 0,000 mm 0,0 UV-I 0 W/m 15,2 C 16,0 C 0,0 km/h (0 Bft)
26.09.2021 05:34 16,1 C 15,6 C 16,7 C 95 % 0 lf 1015,0 hPa 0,0 l/m 0,0 km/h (0 Bft) O-NO 61 0 min 0 min 0,000 mm 0,0 UV-I 0 W/m 15,3 C 16,1 C 0,0 km/h (0 Bft)
26.09.2021 05:32 16,0 C 15,6 C 16,7 C 95 % 0 lf 1015,0 hPa 0,0 l/m 0,0 km/h (0 Bft) N-NO 14 0 min 0 min 0,000 mm 0,0 UV-I 0 W/m 15,2 C 16,0 C 1,6 km/h (1 Bft)
26.09.2021 05:30 16,0 C 15,6 C 16,7 C 95 % 0 lf 1015,0 hPa 0,0 l/m 0,0 km/h (0 Bft) NO 53 0 min 0 min 0,000 mm 0,0 UV-I 0 W/m 15,2 C 16,0 C 0,0 km/h (0 Bft)
26.09.2021 05:28 16,1 C 15,6 C 16,7 C 95 % 0 lf 1015,0 hPa 0,0 l/m 0,0 km/h (0 Bft) N-NO 19 0 min 0 min 0,000 mm 0,0 UV-I 0 W/m 15,3 C 16,1 C 0,0 km/h (0 Bft)
26.09.2021 05:26 16,1 C 15,6 C 16,7 C 95 % 0 lf 1015,0 hPa 0,0 l/m 0,1 km/h (0 Bft) O 89 0 min 0 min 0,000 mm 0,0 UV-I 0 W/m 15,3 C 16,1 C 1,6 km/h (1 Bft)
26.09.2021 05:24 16,1 C 15,6 C 16,7 C 95 % 1 lf 1015,1 hPa 0,0 l/m 0,0 km/h (0 Bft) O-NO 72 0 min 0 min 0,000 mm 0,0 UV-I 0 W/m 15,3 C 16,1 C 0,0 km/h (0 Bft)
26.09.2021 05:22 16,1 C 15,6 C 16,7 C 95 % 0 lf 1015,1 hPa 0,0 l/m 0,0 km/h (0 Bft) NO 42 0 min 0 min 0,000 mm 0,0 UV-I 0 W/m 15,3 C 16,1 C 0,0 km/h (0 Bft)
26.09.2021 05:20 16,1 C 15,6 C 16,7 C 95 % 0 lf 1015,1 hPa 0,0 l/m 0,0 km/h (0 Bft) NO 42 0 min 0 min 0,000 mm 0,0 UV-I 0 W/m 15,3 C 16,1 C 1,6 km/h (1 Bft)
26.09.2021 05:18 16,1 C 15,6 C 16,7 C 95 % 1 lf 1015,1 hPa 0,0 l/m 0,1 km/h (0 Bft) O 100 0 min 0 min 0,000 mm 0,0 UV-I 0 W/m 15,3 C 16,1 C 1,6 km/h (1 Bft)
26.09.2021 05:16 16,1 C 15,6 C 16,7 C 95 % 1 lf 1015,1 hPa 0,0 l/m 0,1 km/h (0 Bft) NO 37 0 min 0 min 0,000 mm 0,0 UV-I 0 W/m 15,3 C 16,1 C 1,6 km/h (1 Bft)
26.09.2021 05:14 16,0 C 15,6 C 16,7 C 95 % 1 lf 1015,1 hPa 0,0 l/m 0,0 km/h (0 Bft) O 90 0 min 0 min 0,000 mm 0,0 UV-I 0 W/m 15,2 C 16,0 C 0,0 km/h (0 Bft)
26.09.2021 05:12 16,1 C 15,6 C 16,7 C 95 % 1 lf 1015,2 hPa 0,0 l/m 0,0 km/h (0 Bft) O-NO 63 0 min 0 min 0,000 mm 0,0 UV-I 0 W/m 15,3 C 16,1 C 0,0 km/h (0 Bft)
26.09.2021 05:10 16,1 C 15,6 C 16,7 C 95 % 1 lf 1015,2 hPa 0,0 l/m 0,0 km/h (0 Bft) O-SO 103 0 min 0 min 0,000 mm 0,0 UV-I 0 W/m 15,3 C 16,1 C 0,0 km/h (0 Bft)
26.09.2021 05:08 16,0 C 15,6 C 16,7 C 95 % 1 lf 1015,2 hPa 0,0 l/m 0,0 km/h (0 Bft) O-NO 70 0 min 0 min 0,000 mm 0,0 UV-I 0 W/m 15,2 C 16,0 C 1,6 km/h (1 Bft)
26.09.2021 05:06 16,0 C 15,6 C 16,7 C 95 % 1 lf 1015,2 hPa 0,0 l/m 0,0 km/h (0 Bft) O-NO 78 0 min 0 min 0,000 mm 0,0 UV-I 0 W/m 15,2 C 16,0 C 0,0 km/h (0 Bft)
26.09.2021 05:04 16,1 C 15,6 C 16,7 C 95 % 1 lf 1015,3 hPa 0,0 l/m 0,0 km/h (0 Bft) NO 44 0 min 0 min 0,000 mm 0,0 UV-I 0 W/m 15,3 C 16,1 C 0,0 km/h (0 Bft)
26.09.2021 05:02 16,0 C 15,6 C 16,7 C 95 % 1 lf 1015,4 hPa 0,0 l/m 0,0 km/h (0 Bft) O-NO 65 0 min 0 min 0,000 mm 0,0 UV-I 0 W/m 15,2 C 16,0 C 0,0 km/h (0 Bft)
26.09.2021 05:00 16,0 C 15,6 C 16,7 C 95 % 1 lf 1015,3 hPa 0,0 l/m 0,0 km/h (0 Bft) O 96 0 min 0 min 0,000 mm 0,0 UV-I 0 W/m 15,2 C 16,0 C 1,6 km/h (1 Bft)
26.09.2021 04:58 16,0 C 15,6 C 16,7 C 95 % 1 lf 1015,3 hPa 0,0 l/m 0,0 km/h (0 Bft) NO 53 0 min 0 min 0,000 mm 0,0 UV-I 0 W/m 15,2 C 16,0 C 0,0 km/h (0 Bft)
26.09.2021 04:56 16,1 C 15,6 C 16,7 C 95 % 1 lf 1015,3 hPa 0,0 l/m 0,0 km/h (0 Bft) N-NO 26 0 min 0 min 0,000 mm 0,0 UV-I 0 W/m 15,3 C 16,1 C 0,0 km/h (0 Bft)
26.09.2021 04:54 16,0 C 15,6 C 16,7 C 95 % 0 lf 1015,4 hPa 0,0 l/m 0,0 km/h (0 Bft) N-NO 23 0 min 0 min 0,000 mm 0,0 UV-I 0 W/m 15,2 C 16,0 C 0,0 km/h (0 Bft)
26.09.2021 04:52 16,1 C 15,6 C 16,7 C 95 % 1 lf 1015,5 hPa 0,0 l/m 0,0 km/h (0 Bft) O 93 0 min 0 min 0,000 mm 0,0 UV-I 0 W/m 15,3 C 16,1 C 1,6 km/h (1 Bft)
26.09.2021 04:50 16,1 C 15,6 C 16,7 C 95 % 1 lf 1015,5 hPa 0,0 l/m 0,0 km/h (0 Bft) O-SO 123 0 min 0 min 0,000 mm 0,0 UV-I 0 W/m 15,3 C 16,1 C 0,0 km/h (0 Bft)
26.09.2021 04:48 16,1 C 15,6 C 16,7 C 95 % 1 lf 1015,5 hPa 0,0 l/m 0,0 km/h (0 Bft) O-SO 111 0 min 0 min 0,000 mm 0,0 UV-I 0 W/m 15,3 C 16,1 C 0,0 km/h (0 Bft)
26.09.2021 04:46 16,1 C 15,6 C 16,7 C 95 % 0 lf 1015,5 hPa 0,0 l/m 0,0 km/h (0 Bft) O 84 0 min 0 min 0,000 mm 0,0 UV-I 0 W/m 15,3 C 16,1 C 0,0 km/h (0 Bft)
26.09.2021 04:44 16,1 C 15,6 C 16,7 C 95 % 0 lf 1015,5 hPa 0,0 l/m 0,0 km/h (0 Bft) NO 48 0 min 0 min 0,000 mm 0,0 UV-I 0 W/m 15,3 C 16,1 C 0,0 km/h (0 Bft)
26.09.2021 04:42 16,1 C 15,6 C 16,7 C 95 % 0 lf 1015,5 hPa 0,0 l/m 0,0 km/h (0 Bft) NO 46 0 min 0 min 0,000 mm 0,0 UV-I 0 W/m 15,3 C 16,1 C 1,6 km/h (1 Bft)
26.09.2021 04:40 16,1 C 15,6 C 16,7 C 95 % 0 lf 1015,5 hPa 0,0 l/m 0,0 km/h (0 Bft) SO 126 0 min 0 min 0,000 mm 0,0 UV-I 0 W/m 15,3 C 16,1 C 0,0 km/h (0 Bft)
26.09.2021 04:38 16,1 C 15,6 C 16,7 C 95 % 0 lf 1015,5 hPa 0,0 l/m 0,0 km/h (0 Bft) SO 143 0 min 0 min 0,000 mm 0,0 UV-I 0 W/m 15,3 C 16,1 C 1,6 km/h (1 Bft)
26.09.2021 04:36 16,1 C 15,6 C 16,7 C 95 % 0 lf 1015,5 hPa 0,0 l/m 0,0 km/h (0 Bft) S-SO 162 0 min 0 min 0,000 mm 0,0 UV-I 0 W/m 15,3 C 16,1 C 0,0 km/h (0 Bft)
26.09.2021 04:34 16,1 C 15,6 C 16,7 C 95 % 0 lf 1015,5 hPa 0,0 l/m 0,1 km/h (0 Bft) S-SO 153 0 min 0 min 0,000 mm 0,0 UV-I 0 W/m 15,3 C 16,1 C 1,6 km/h (1 Bft)
26.09.2021 04:32 16,1 C 15,6 C 16,7 C 95 % 0 lf 1015,5 hPa 0,0 l/m 0,0 km/h (0 Bft) SO 128 0 min 0 min 0,000 mm 0,0 UV-I 0 W/m 15,3 C 16,1 C 0,0 km/h (0 Bft)
26.09.2021 04:30 16,2 C 15,6 C 16,7 C 95 % 0 lf 1015,5 hPa 0,0 l/m 0,0 km/h (0 Bft) SO 128 0 min 0 min 0,000 mm 0,0 UV-I 0 W/m 15,4 C 16,2 C 1,6 km/h (1 Bft)
26.09.2021 04:28 16,2 C 15,6 C 16,7 C 95 % 0 lf 1015,5 hPa 0,0 l/m 0,0 km/h (0 Bft) O 93 0 min 0 min 0,000 mm 0,0 UV-I 0 W/m 15,4 C 16,2 C 1,6 km/h (1 Bft)
26.09.2021 04:26 16,2 C 15,6 C 16,7 C 95 % 0 lf 1015,5 hPa 0,0 l/m 0,0 km/h (0 Bft) O 79 0 min 0 min 0,000 mm 0,0 UV-I 0 W/m 15,4 C 16,2 C 1,6 km/h (1 Bft)
26.09.2021 04:24 16,2 C 15,6 C 16,7 C 94 % 0 lf 1015,5 hPa 0,0 l/m 0,1 km/h (0 Bft) NO 36 0 min 0 min 0,000 mm 0,0 UV-I 0 W/m 15,2 C 16,2 C 1,6 km/h (1 Bft)
26.09.2021 04:22 16,2 C 15,6 C 16,7 C 94 % 0 lf 1015,5 hPa 0,0 l/m 0,0 km/h (0 Bft) O-SO 109 0 min 0 min 0,000 mm 0,0 UV-I 0 W/m 15,2 C 16,2 C 1,6 km/h (1 Bft)
26.09.2021 04:20 16,2 C 15,6 C 16,7 C 94 % 0 lf 1015,5 hPa 0,0 l/m 0,2 km/h (0 Bft) NO 49 0 min 0 min 0,000 mm 0,0 UV-I 0 W/m 15,2 C 16,2 C 1,6 km/h (1 Bft)
26.09.2021 04:18 16,3 C 15,6 C 16,7 C 94 % 0 lf 1015,5 hPa 0,0 l/m 0,0 km/h (0 Bft) N-NO 20 0 min 0 min 0,000 mm 0,0 UV-I 0 W/m 15,3 C 16,3 C 0,0 km/h (0 Bft)
26.09.2021 04:16 16,3 C 15,6 C 16,7 C 94 % 0 lf 1015,6 hPa 0,0 l/m 0,0 km/h (0 Bft) SO 134 0 min 0 min 0,000 mm 0,0 UV-I 0 W/m 15,3 C 16,3 C 1,6 km/h (1 Bft)
26.09.2021 04:14 16,3 C 15,6 C 16,7 C 94 % 0 lf 1015,6 hPa 0,0 l/m 0,0 km/h (0 Bft) SO 124 0 min 0 min 0,000 mm 0,0 UV-I 0 W/m 15,3 C 16,3 C 0,0 km/h (0 Bft)
26.09.2021 04:12 16,3 C 15,6 C 16,7 C 94 % 0 lf 1015,6 hPa 0,0 l/m 0,1 km/h (0 Bft) NO 45 0 min 0 min 0,000 mm 0,0 UV-I 0 W/m 15,3 C 16,3 C 1,6 km/h (1 Bft)
26.09.2021 04:10 16,3 C 15,6 C 16,7 C 94 % 0 lf 1015,6 hPa 0,0 l/m 0,0 km/h (0 Bft) O-NO 63 0 min 0 min 0,000 mm 0,0 UV-I 0 W/m 15,3 C 16,3 C 0,0 km/h (0 Bft)
26.09.2021 04:08 16,3 C 15,6 C 16,7 C 94 % 0 lf 1015,6 hPa 0,0 l/m 0,0 km/h (0 Bft) O 91 0 min 0 min 0,000 mm 0,0 UV-I 0 W/m 15,3 C 16,3 C 0,0 km/h (0 Bft)
26.09.2021 04:06 16,4 C 15,6 C 16,7 C 94 % 0 lf 1015,6 hPa 0,0 l/m 0,0 km/h (0 Bft) O-NO 61 0 min 0 min 0,000 mm 0,0 UV-I 0 W/m 15,4 C 16,4 C 0,0 km/h (0 Bft)
26.09.2021 04:04 16,3 C 15,6 C 16,7 C 94 % 0 lf 1015,6 hPa 0,0 l/m 0,0 km/h (0 Bft) N 355 0 min 0 min 0,000 mm 0,0 UV-I 0 W/m 15,3 C 16,3 C 0,0 km/h (0 Bft)
26.09.2021 04:02 16,4 C 15,6 C 16,7 C 94 % 0 lf 1015,6 hPa 0,0 l/m 0,0 km/h (0 Bft) NO 55 0 min 0 min 0,000 mm 0,0 UV-I 0 W/m 15,4 C 16,4 C 0,0 km/h (0 Bft)
26.09.2021 04:00 16,4 C 15,6 C 16,7 C 94 % 0 lf 1015,5 hPa 0,0 l/m 0,0 km/h (0 Bft) NO 39 0 min 0 min 0,000 mm 0,0 UV-I 0 W/m 15,4 C 16,4 C 0,0 km/h (0 Bft)
26.09.2021 03:58 16,4 C 15,6 C 16,7 C 94 % 0 lf 1015,6 hPa 0,0 l/m 0,0 km/h (0 Bft) O-SO 109 0 min 0 min 0,000 mm 0,0 UV-I 0 W/m 15,4 C 16,4 C 0,0 km/h (0 Bft)
26.09.2021 03:56 16,4 C 15,6 C 16,7 C 94 % 0 lf 1015,6 hPa 0,0 l/m 0,0 km/h (0 Bft) O-SO 109 0 min 0 min 0,000 mm 0,0 UV-I 0 W/m 15,4 C 16,4 C 1,6 km/h (1 Bft)
26.09.2021 03:54 16,4 C 15,6 C 16,7 C 94 % 0 lf 1015,6 hPa 0,0 l/m 0,4 km/h (0 Bft) O-SO 109 0 min 0 min 0,000 mm 0,0 UV-I 0 W/m 15,4 C 16,4 C 1,6 km/h (1 Bft)
26.09.2021 03:52 16,4 C 15,6 C 16,7 C 94 % 0 lf 1015,6 hPa 0,0 l/m 0,3 km/h (0 Bft) O-SO 113 0 min 0 min 0,000 mm 0,0 UV-I 0 W/m 15,4 C 16,4 C 1,6 km/h (1 Bft)
26.09.2021 03:50 16,4 C 15,6 C 16,7 C 94 % 0 lf 1015,6 hPa 0,0 l/m 1,3 km/h (1 Bft) O-SO 113 0 min 0 min 0,000 mm 0,0 UV-I 0 W/m 15,4 C 16,4 C 3,2 km/h (1 Bft)
26.09.2021 03:48 16,4 C 15,6 C 16,7 C 94 % 0 lf 1015,6 hPa 0,0 l/m 0,9 km/h (0 Bft) O 99 0 min 0 min 0,000 mm 0,0 UV-I 0 W/m 15,4 C 16,4 C 3,2 km/h (1 Bft)
26.09.2021 03:46 16,4 C 15,6 C 16,7 C 94 % 0 lf 1015,7 hPa 0,0 l/m 0,3 km/h (0 Bft) O-NO 76 0 min 0 min 0,000 mm 0,0 UV-I 0 W/m 15,4 C 16,4 C 1,6 km/h (1 Bft)
26.09.2021 03:44 16,5 C 15,6 C 16,7 C 94 % 0 lf 1015,7 hPa 0,0 l/m 1,0 km/h (0 Bft) O-NO 76 0 min 0 min 0,000 mm 0,0 UV-I 0 W/m 15,5 C 16,5 C 3,2 km/h (1 Bft)
26.09.2021 03:42 16,5 C 15,6 C 16,7 C 94 % 0 lf 1015,7 hPa 0,0 l/m 0,0 km/h (0 Bft) O-NO 78 0 min 0 min 0,000 mm 0,0 UV-I 0 W/m 15,5 C 16,5 C 1,6 km/h (1 Bft)
26.09.2021 03:40 16,5 C 15,6 C 16,7 C 94 % 0 lf 1015,7 hPa 0,0 l/m 0,2 km/h (0 Bft) O-NO 78 0 min 0 min 0,000 mm 0,0 UV-I 0 W/m 15,5 C 16,5 C 1,6 km/h (1 Bft)
26.09.2021 03:38 16,5 C 15,6 C 16,7 C 94 % 0 lf 1015,7 hPa 0,0 l/m 1,0 km/h (0 Bft) O-NO 78 0 min 0 min 0,000 mm 0,0 UV-I 0 W/m 15,5 C 16,5 C 3,2 km/h (1 Bft)
26.09.2021 03:36 16,5 C 15,6 C 16,7 C 94 % 0 lf 1015,7 hPa 0,0 l/m 0,6 km/h (0 Bft) O-SO 107 0 min 0 min 0,000 mm 0,0 UV-I 0 W/m 15,5 C 16,5 C 1,6 km/h (1 Bft)
26.09.2021 03:34 16,5 C 15,6 C 16,7 C 94 % 0 lf 1015,7 hPa 0,0 l/m 2,6 km/h (1 Bft) N-NO 14 0 min 0 min 0,000 mm 0,0 UV-I 0 W/m 15,5 C 16,5 C 6,4 km/h (2 Bft)
26.09.2021 03:32 16,5 C 15,6 C 16,7 C 94 % 0 lf 1015,7 hPa 0,0 l/m 0,4 km/h (0 Bft) O-NO 67 0 min 0 min 0,000 mm 0,0 UV-I 0 W/m 15,5 C 16,5 C 1,6 km/h (1 Bft)
26.09.2021 03:30 16,5 C 15,6 C 16,7 C 94 % 0 lf 1015,7 hPa 0,0 l/m 0,2 km/h (0 Bft) N 355 0 min 0 min 0,000 mm 0,0 UV-I 0 W/m 15,5 C 16,5 C 1,6 km/h (1 Bft)
26.09.2021 03:28 16,5 C 15,6 C 16,7 C 94 % 0 lf 1015,7 hPa 0,0 l/m 1,0 km/h (0 Bft) O 100 0 min 0 min 0,000 mm 0,0 UV-I 0 W/m 15,5 C 16,5 C 3,2 km/h (1 Bft)
26.09.2021 03:26 16,5 C 15,6 C 16,7 C 94 % 0 lf 1015,7 hPa 0,0 l/m 1,7 km/h (1 Bft) O 88 0 min 0 min 0,000 mm 0,0 UV-I 0 W/m 15,5 C 16,5 C 4,8 km/h (1 Bft)
26.09.2021 03:24 16,5 C 15,6 C 16,7 C 94 % 0 lf 1015,7 hPa 0,0 l/m 1,8 km/h (1 Bft) O 98 0 min 0 min 0,000 mm 0,0 UV-I 0 W/m 15,5 C 16,5 C 4,8 km/h (1 Bft)
26.09.2021 03:22 16,5 C 15,6 C 16,7 C 93 % 0 lf 1015,7 hPa 0,0 l/m 1,0 km/h (0 Bft) O-SO 111 0 min 0 min 0,000 mm 0,0 UV-I 0 W/m 15,4 C 16,5 C 3,2 km/h (1 Bft)
26.09.2021 03:20 16,5 C 15,6 C 16,7 C 93 % 0 lf 1015,7 hPa 0,0 l/m 0,2 km/h (0 Bft) O 91 0 min 0 min 0,000 mm 0,0 UV-I 0 W/m 15,4 C 16,5 C 1,6 km/h (1 Bft)
26.09.2021 03:18 16,4 C 15,6 C 16,7 C 93 % 0 lf 1015,8 hPa 0,0 l/m 0,1 km/h (0 Bft) O 82 0 min 0 min 0,000 mm 0,0 UV-I 0 W/m 15,3 C 16,4 C 1,6 km/h (1 Bft)
26.09.2021 03:16 16,4 C 15,6 C 16,7 C 93 % 0 lf 1015,8 hPa 0,0 l/m 0,1 km/h (0 Bft) O 82 0 min 0 min 0,000 mm 0,0 UV-I 0 W/m 15,3 C 16,4 C 1,6 km/h (1 Bft)
26.09.2021 03:14 16,4 C 15,6 C 16,7 C 93 % 0 lf 1015,7 hPa 0,0 l/m 1,0 km/h (0 Bft) NO 55 0 min 0 min 0,000 mm 0,0 UV-I 0 W/m 15,3 C 16,4 C 3,2 km/h (1 Bft)
26.09.2021 03:12 16,4 C 15,6 C 16,7 C 93 % 0 lf 1015,8 hPa 0,0 l/m 0,3 km/h (0 Bft) O-NO 75 0 min 0 min 0,000 mm 0,0 UV-I 0 W/m 15,3 C 16,4 C 3,2 km/h (1 Bft)
26.09.2021 03:10 16,4 C 15,6 C 16,7 C 93 % 0 lf 1015,7 hPa 0,0 l/m 0,5 km/h (0 Bft) O-NO 65 0 min 0 min 0,000 mm 0,0 UV-I 0 W/m 15,3 C 16,4 C 3,2 km/h (1 Bft)
26.09.2021 03:08 16,4 C 15,6 C 16,7 C 93 % 0 lf 1015,8 hPa 0,0 l/m 0,6 km/h (0 Bft) O-NO 76 0 min 0 min 0,000 mm 0,0 UV-I 0 W/m 15,3 C 16,4 C 3,2 km/h (1 Bft)
26.09.2021 03:06 16,4 C 15,6 C 16,7 C 93 % 0 lf 1015,8 hPa 0,0 l/m 0,0 km/h (0 Bft) NO 35 0 min 0 min 0,000 mm 0,0 UV-I 0 W/m 15,3 C 16,4 C 0,0 km/h (0 Bft)
26.09.2021 03:04 16,4 C 15,6 C 16,7 C 93 % 0 lf 1015,8 hPa 0,0 l/m 0,6 km/h (0 Bft) NO 35 0 min 0 min 0,000 mm 0,0 UV-I 0 W/m 15,3 C 16,4 C 3,2 km/h (1 Bft)
26.09.2021 03:02 16,4 C 15,6 C 16,7 C 93 % 0 lf 1015,8 hPa 0,0 l/m 0,9 km/h (0 Bft) NO 38 0 min 0 min 0,000 mm 0,0 UV-I 0 W/m 15,3 C 16,4 C 3,2 km/h (1 Bft)
26.09.2021 03:00 16,5 C 15,6 C 16,7 C 93 % 0 lf 1015,8 hPa 0,0 l/m 0,2 km/h (0 Bft) N-NO 30 0 min 0 min 0,000 mm 0,0 UV-I 0 W/m 15,4 C 16,5 C 1,6 km/h (1 Bft)
26.09.2021 02:58 16,5 C 15,6 C 16,7 C 93 % 0 lf 1015,8 hPa 0,0 l/m 1,2 km/h (1 Bft) O 93 0 min 0 min 0,000 mm 0,0 UV-I 0 W/m 15,4 C 16,5 C 4,8 km/h (1 Bft)
26.09.2021 02:56 16,5 C 15,6 C 16,7 C 93 % 0 lf 1015,8 hPa 0,0 l/m 0,3 km/h (0 Bft) O-SO 107 0 min 0 min 0,000 mm 0,0 UV-I 0 W/m 15,4 C 16,5 C 1,6 km/h (1 Bft)
26.09.2021 02:54 16,5 C 15,6 C 16,7 C 93 % 0 lf 1015,8 hPa 0,0 l/m 1,2 km/h (1 Bft) O-NO 69 0 min 0 min 0,000 mm 0,0 UV-I 0 W/m 15,4 C 16,5 C 4,8 km/h (1 Bft)
26.09.2021 02:52 16,6 C 15,6 C 16,7 C 93 % 0 lf 1015,9 hPa 0,0 l/m 1,0 km/h (0 Bft) O-SO 109 0 min 0 min 0,000 mm 0,0 UV-I 0 W/m 15,5 C 16,6 C 3,2 km/h (1 Bft)
26.09.2021 02:50 16,5 C 15,6 C 16,7 C 93 % 0 lf 1015,9 hPa 0,0 l/m 0,8 km/h (0 Bft) O-NO 65 0 min 0 min 0,000 mm 0,0 UV-I 0 W/m 15,4 C 16,5 C 4,8 km/h (1 Bft)
26.09.2021 02:48 16,6 C 15,6 C 16,7 C 93 % 0 lf 1015,9 hPa 0,0 l/m 1,0 km/h (0 Bft) N-NW 330 0 min 0 min 0,000 mm 0,0 UV-I 0 W/m 15,5 C 16,6 C 3,2 km/h (1 Bft)
26.09.2021 02:46 16,6 C 15,6 C 16,7 C 93 % 0 lf 1015,8 hPa 0,0 l/m 1,0 km/h (0 Bft) O 99 0 min 0 min 0,000 mm 0,0 UV-I 0 W/m 15,5 C 16,6 C 1,6 km/h (1 Bft)
26.09.2021 02:44 16,6 C 15,6 C 16,7 C 93 % 0 lf 1015,8 hPa 0,0 l/m 1,2 km/h (1 Bft) O 96 0 min 0 min 0,000 mm 0,0 UV-I 0 W/m 15,5 C 16,6 C 3,2 km/h (1 Bft)
26.09.2021 02:42 16,6 C 15,6 C 16,7 C 93 % 0 lf 1015,8 hPa 0,0 l/m 0,4 km/h (0 Bft) O-SO 108 0 min 0 min 0,000 mm 0,0 UV-I 0 W/m 15,5 C 16,6 C 3,2 km/h (1 Bft)
26.09.2021 02:40 16,6 C 15,6 C 16,7 C 93 % 0 lf 1015,8 hPa 0,0 l/m 1,5 km/h (1 Bft) NO 34 0 min 0 min 0,000 mm 0,0 UV-I 0 W/m 15,5 C 16,6 C 4,8 km/h (1 Bft)
26.09.2021 02:38 16,6 C 15,6 C 16,7 C 93 % 0 lf 1015,8 hPa 0,0 l/m 0,7 km/h (0 Bft) O 90 0 min 0 min 0,000 mm 0,0 UV-I 0 W/m 15,5 C 16,6 C 3,2 km/h (1 Bft)
26.09.2021 02:36 16,6 C 15,6 C 16,7 C 93 % 0 lf 1015,8 hPa 0,0 l/m 1,5 km/h (1 Bft) O 88 0 min 0 min 0,000 mm 0,0 UV-I 0 W/m 15,5 C 16,6 C 3,2 km/h (1 Bft)
26.09.2021 02:34 16,6 C 15,6 C 16,7 C 93 % 0 lf 1015,8 hPa 0,0 l/m 1,3 km/h (1 Bft) O-NO 69 0 min 0 min 0,000 mm 0,0 UV-I 0 W/m 15,5 C 16,6 C 4,8 km/h (1 Bft)
26.09.2021 02:32 16,6 C 15,6 C 16,7 C 93 % 0 lf 1015,7 hPa 0,0 l/m 0,5 km/h (0 Bft) NO 45 0 min 0 min 0,000 mm 0,0 UV-I 0 W/m 15,5 C 16,6 C 3,2 km/h (1 Bft)
26.09.2021 02:30 16,6 C 15,6 C 16,7 C 93 % 0 lf 1015,7 hPa 0,0 l/m 0,9 km/h (0 Bft) O-SO 117 0 min 0 min 0,000 mm 0,0 UV-I 0 W/m 15,5 C 16,6 C 3,2 km/h (1 Bft)
26.09.2021 02:28 16,6 C 15,6 C 16,7 C 92 % 0 lf 1015,7 hPa 0,0 l/m 1,1 km/h (1 Bft) N-NO 15 0 min 0 min 0,000 mm 0,0 UV-I 0 W/m 15,3 C 16,6 C 3,2 km/h (1 Bft)
26.09.2021 02:26 16,6 C 15,6 C 16,7 C 93 % 0 lf 1015,7 hPa 0,0 l/m 2,0 km/h (1 Bft) N 360 0 min 0 min 0,000 mm 0,0 UV-I 0 W/m 15,5 C 16,6 C 4,8 km/h (1 Bft)
26.09.2021 02:24 16,6 C 15,6 C 16,7 C 92 % 0 lf 1015,7 hPa 0,0 l/m 1,8 km/h (1 Bft) NO 38 0 min 0 min 0,000 mm 0,0 UV-I 0 W/m 15,3 C 16,6 C 3,2 km/h (1 Bft)
26.09.2021 02:22 16,6 C 15,6 C 16,7 C 92 % 0 lf 1015,7 hPa 0,0 l/m 2,5 km/h (1 Bft) NO 48 0 min 0 min 0,000 mm 0,0 UV-I 0 W/m 15,3 C 16,6 C 6,4 km/h (2 Bft)
26.09.2021 02:20 16,6 C 15,6 C 16,7 C 92 % 0 lf 1015,7 hPa 0,0 l/m 3,7 km/h (1 Bft) N-NO 22 0 min 0 min 0,000 mm 0,0 UV-I 0 W/m 15,3 C 16,6 C 8,0 km/h (2 Bft)
26.09.2021 02:18 16,6 C 15,6 C 16,7 C 92 % 0 lf 1015,7 hPa 0,0 l/m 1,6 km/h (1 Bft) N-NO 16 0 min 0 min 0,000 mm 0,0 UV-I 0 W/m 15,3 C 16,6 C 6,4 km/h (2 Bft)
26.09.2021 02:16 16,6 C 15,6 C 16,7 C 92 % 0 lf 1015,7 hPa 0,0 l/m 1,4 km/h (1 Bft) O 96 0 min 0 min 0,000 mm 0,0 UV-I 0 W/m 15,3 C 16,6 C 3,2 km/h (1 Bft)
26.09.2021 02:14 16,6 C 15,6 C 16,7 C 92 % 0 lf 1015,8 hPa 0,0 l/m 0,4 km/h (0 Bft) O-NO 65 0 min 0 min 0,000 mm 0,0 UV-I 0 W/m 15,3 C 16,6 C 1,6 km/h (1 Bft)
26.09.2021 02:12 16,6 C 15,6 C 16,7 C 92 % 0 lf 1015,8 hPa 0,0 l/m 0,9 km/h (0 Bft) NO 52 0 min 0 min 0,000 mm 0,0 UV-I 0 W/m 15,3 C 16,6 C 4,8 km/h (1 Bft)
26.09.2021 02:10 16,6 C 15,6 C 16,7 C 92 % 0 lf 1015,8 hPa 0,0 l/m 2,4 km/h (1 Bft) O 80 0 min 0 min 0,000 mm 0,0 UV-I 0 W/m 15,3 C 16,6 C 4,8 km/h (1 Bft)
26.09.2021 02:08 16,6 C 15,6 C 16,7 C 92 % 0 lf 1015,8 hPa 0,0 l/m 1,0 km/h (0 Bft) N-NO 26 0 min 0 min 0,000 mm 0,0 UV-I 0 W/m 15,3 C 16,6 C 3,2 km/h (1 Bft)
26.09.2021 02:06 16,6 C 15,6 C 16,7 C 92 % 0 lf 1015,8 hPa 0,0 l/m 0,3 km/h (0 Bft) O-SO 103 0 min 0 min 0,000 mm 0,0 UV-I 0 W/m 15,3 C 16,6 C 3,2 km/h (1 Bft)
26.09.2021 02:04 16,6 C 15,6 C 16,7 C 92 % 0 lf 1015,8 hPa 0,0 l/m 0,0 km/h (0 Bft) N 9 0 min 0 min 0,000 mm 0,0 UV-I 0 W/m 15,3 C 16,6 C 1,6 km/h (1 Bft)
26.09.2021 02:02 16,6 C 15,6 C 16,7 C 92 % 0 lf 1015,8 hPa 0,0 l/m 0,8 km/h (0 Bft) N-NO 32 0 min 0 min 0,000 mm 0,0 UV-I 0 W/m 15,3 C 16,6 C 3,2 km/h (1 Bft)
26.09.2021 02:00 16,6 C 15,6 C 16,7 C 92 % 0 lf 1015,8 hPa 0,0 l/m 0,8 km/h (0 Bft) O-SO 107 0 min 0 min 0,000 mm 0,0 UV-I 0 W/m 15,3 C 16,6 C 3,2 km/h (1 Bft)
26.09.2021 01:58 16,6 C 15,6 C 16,7 C 92 % 0 lf 1015,9 hPa 0,0 l/m 1,0 km/h (0 Bft) O 96 0 min 0 min 0,000 mm 0,0 UV-I 0 W/m 15,3 C 16,6 C 3,2 km/h (1 Bft)
26.09.2021 01:56 16,6 C 15,6 C 16,7 C 92 % 0 lf 1015,9 hPa 0,0 l/m 1,1 km/h (1 Bft) O-NO 71 0 min 0 min 0,000 mm 0,0 UV-I 0 W/m 15,3 C 16,6 C 3,2 km/h (1 Bft)
26.09.2021 01:54 16,6 C 15,6 C 16,7 C 92 % 0 lf 1015,9 hPa 0,0 l/m 0,9 km/h (0 Bft) NO 56 0 min 0 min 0,000 mm 0,0 UV-I 0 W/m 15,3 C 16,6 C 3,2 km/h (1 Bft)
26.09.2021 01:52 16,6 C 15,6 C 16,7 C 92 % 0 lf 1015,9 hPa 0,0 l/m 1,0 km/h (0 Bft) NO 54 0 min 0 min 0,000 mm 0,0 UV-I 0 W/m 15,3 C 16,6 C 3,2 km/h (1 Bft)
26.09.2021 01:50 16,6 C 15,6 C 16,7 C 92 % 0 lf 1015,9 hPa 0,0 l/m 2,3 km/h (1 Bft) O-NO 73 0 min 0 min 0,000 mm 0,0 UV-I 0 W/m 15,3 C 16,6 C 4,8 km/h (1 Bft)
26.09.2021 01:48 16,6 C 15,6 C 16,7 C 92 % 0 lf 1015,9 hPa 0,0 l/m 0,3 km/h (0 Bft) NO 55 0 min 0 min 0,000 mm 0,0 UV-I 0 W/m 15,3 C 16,6 C 3,2 km/h (1 Bft)
26.09.2021 01:46 16,6 C 15,6 C 16,7 C 91 % 0 lf 1015,9 hPa 0,0 l/m 0,5 km/h (0 Bft) NO 34 0 min 0 min 0,000 mm 0,0 UV-I 0 W/m 15,1 C 16,6 C 1,6 km/h (1 Bft)
26.09.2021 01:44 16,6 C 15,6 C 16,7 C 91 % 0 lf 1015,9 hPa 0,0 l/m 0,2 km/h (0 Bft) N 9 0 min 0 min 0,000 mm 0,0 UV-I 0 W/m 15,1 C 16,6 C 1,6 km/h (1 Bft)
26.09.2021 01:42 16,7 C 15,6 C 16,7 C 91 % 0 lf 1015,9 hPa 0,0 l/m 0,7 km/h (0 Bft) O 82 0 min 0 min 0,000 mm 0,0 UV-I 0 W/m 15,2 C 16,7 C 3,2 km/h (1 Bft)
26.09.2021 01:40 16,7 C 15,6 C 16,7 C 91 % 0 lf 1015,9 hPa 0,0 l/m 0,2 km/h (0 Bft) N-NO 28 0 min 0 min 0,000 mm 0,0 UV-I 0 W/m 15,2 C 16,7 C 1,6 km/h (1 Bft)
26.09.2021 01:38 16,7 C 15,6 C 16,7 C 91 % 0 lf 1015,9 hPa 0,0 l/m 0,5 km/h (0 Bft) NW 305 0 min 0 min 0,000 mm 0,0 UV-I 0 W/m 15,2 C 16,7 C 3,2 km/h (1 Bft)
26.09.2021 01:36 16,7 C 15,6 C 16,7 C 91 % 0 lf 1015,9 hPa 0,0 l/m 1,3 km/h (1 Bft) SW 236 0 min 0 min 0,000 mm 0,0 UV-I 0 W/m 15,2 C 16,7 C 3,2 km/h (1 Bft)
26.09.2021 01:34 16,7 C 15,6 C 16,7 C 91 % 0 lf 1015,9 hPa 0,0 l/m 1,7 km/h (1 Bft) NO 49 0 min 0 min 0,000 mm 0,0 UV-I 0 W/m 15,2 C 16,7 C 4,8 km/h (1 Bft)
26.09.2021 01:32 16,7 C 15,6 C 16,7 C 91 % 0 lf 1015,9 hPa 0,0 l/m 1,3 km/h (1 Bft) N-NO 28 0 min 0 min 0,000 mm 0,0 UV-I 0 W/m 15,2 C 16,7 C 4,8 km/h (1 Bft)
26.09.2021 01:30 16,6 C 15,6 C 16,7 C 91 % 0 lf 1016,0 hPa 0,0 l/m 0,4 km/h (0 Bft) N-NO 23 0 min 0 min 0,000 mm 0,0 UV-I 0 W/m 15,1 C 16,6 C 1,6 km/h (1 Bft)
26.09.2021 01:28 16,6 C 15,6 C 16,7 C 91 % 0 lf 1015,9 hPa 0,0 l/m 0,7 km/h (0 Bft) N-NW 348 0 min 0 min 0,000 mm 0,0 UV-I 0 W/m 15,1 C 16,6 C 3,2 km/h (1 Bft)
26.09.2021 01:26 16,6 C 15,6 C 16,7 C 91 % 0 lf 1015,9 hPa 0,0 l/m 0,2 km/h (0 Bft) NO 38 0 min 0 min 0,000 mm 0,0 UV-I 0 W/m 15,1 C 16,6 C 1,6 km/h (1 Bft)
26.09.2021 01:24 16,6 C 15,6 C 16,7 C 91 % 0 lf 1016,0 hPa 0,0 l/m 0,5 km/h (0 Bft) N-NO 24 0 min 0 min 0,000 mm 0,0 UV-I 0 W/m 15,1 C 16,6 C 1,6 km/h (1 Bft)
26.09.2021 01:22 16,6 C 15,6 C 16,7 C 91 % 0 lf 1015,9 hPa 0,0 l/m 0,1 km/h (0 Bft) NO 45 0 min 0 min 0,000 mm 0,0 UV-I 0 W/m 15,1 C 16,6 C 1,6 km/h (1 Bft)
26.09.2021 01:20 16,6 C 15,6 C 16,7 C 91 % 0 lf 1016,0 hPa 0,0 l/m 1,0 km/h (0 Bft) NO 40 0 min 0 min 0,000 mm 0,0 UV-I 0 W/m 15,1 C 16,6 C 3,2 km/h (1 Bft)
26.09.2021 01:18 16,6 C 15,6 C 17,2 C 91 % 0 lf 1015,9 hPa 0,0 l/m 0,3 km/h (0 Bft) O-NO 63 0 min 0 min 0,000 mm 0,0 UV-I 0 W/m 15,1 C 16,6 C 1,6 km/h (1 Bft)
26.09.2021 01:16 16,6 C 15,6 C 17,2 C 91 % 0 lf 1015,9 hPa 0,0 l/m 0,7 km/h (0 Bft) NO 36 0 min 0 min 0,000 mm 0,0 UV-I 0 W/m 15,1 C 16,6 C 1,6 km/h (1 Bft)
26.09.2021 01:14 16,6 C 15,6 C 17,2 C 91 % 0 lf 1015,9 hPa 0,0 l/m 0,6 km/h (0 Bft) O 84 0 min 0 min 0,000 mm 0,0 UV-I 0 W/m 15,1 C 16,6 C 3,2 km/h (1 Bft)
26.09.2021 01:12 16,6 C 15,6 C 17,2 C 91 % 0 lf 1016,0 hPa 0,0 l/m 0,4 km/h (0 Bft) O 83 0 min 0 min 0,000 mm 0,0 UV-I 0 W/m 15,1 C 16,6 C 3,2 km/h (1 Bft)
26.09.2021 01:10 16,6 C 15,6 C 17,2 C 91 % 0 lf 1016,0 hPa 0,0 l/m 0,1 km/h (0 Bft) O 82 0 min 0 min 0,000 mm 0,0 UV-I 0 W/m 15,1 C 16,6 C 1,6 km/h (1 Bft)
26.09.2021 01:08 16,6 C 15,6 C 17,2 C 91 % 0 lf 1016,0 hPa 0,0 l/m 1,4 km/h (1 Bft) O 98 0 min 0 min 0,000 mm 0,0 UV-I 0 W/m 15,1 C 16,6 C 3,2 km/h (1 Bft)
26.09.2021 01:06 16,6 C 15,6 C 17,2 C 91 % 0 lf 1016,0 hPa 0,0 l/m 0,6 km/h (0 Bft) O-NO 74 0 min 0 min 0,000 mm 0,0 UV-I 0 W/m 15,1 C 16,6 C 3,2 km/h (1 Bft)
26.09.2021 01:04 16,6 C 15,6 C 17,2 C 91 % 0 lf 1016,0 hPa 0,0 l/m 0,0 km/h (0 Bft) NO 44 0 min 0 min 0,000 mm 0,0 UV-I 0 W/m 15,1 C 16,6 C 0,0 km/h (0 Bft)
26.09.2021 01:02 16,6 C 15,6 C 17,2 C 91 % 0 lf 1016,0 hPa 0,0 l/m 0,8 km/h (0 Bft) NO 44 0 min 0 min 0,000 mm 0,0 UV-I 0 W/m 15,1 C 16,6 C 3,2 km/h (1 Bft)
26.09.2021 01:00 16,5 C 15,6 C 17,2 C 91 % 0 lf 1016,0 hPa 0,0 l/m 1,2 km/h (1 Bft) N-NO 13 0 min 0 min 0,000 mm 0,0 UV-I 0 W/m 15,0 C 16,5 C 6,4 km/h (2 Bft)
26.09.2021 00:58 16,5 C 15,6 C 17,2 C 91 % 0 lf 1016,0 hPa 0,0 l/m 1,4 km/h (1 Bft) O 98 0 min 0 min 0,000 mm 0,0 UV-I 0 W/m 15,0 C 16,5 C 4,8 km/h (1 Bft)
26.09.2021 00:56 16,5 C 15,6 C 17,2 C 91 % 0 lf 1016,1 hPa 0,0 l/m 1,1 km/h (1 Bft) NO 34 0 min 0 min 0,000 mm 0,0 UV-I 0 W/m 15,0 C 16,5 C 3,2 km/h (1 Bft)
26.09.2021 00:54 16,5 C 15,6 C 17,2 C 91 % 0 lf 1016,0 hPa 0,0 l/m 2,0 km/h (1 Bft) NO 49 0 min 0 min 0,000 mm 0,0 UV-I 0 W/m 15,0 C 16,5 C 4,8 km/h (1 Bft)
26.09.2021 00:52 16,4 C 15,6 C 17,2 C 91 % 0 lf 1016,0 hPa 0,0 l/m 1,8 km/h (1 Bft) N-NO 23 0 min 0 min 0,000 mm 0,0 UV-I 0 W/m 14,9 C 16,4 C 4,8 km/h (1 Bft)
26.09.2021 00:50 16,4 C 15,6 C 17,2 C 91 % 0 lf 1016,1 hPa 0,0 l/m 0,7 km/h (0 Bft) N 10 0 min 0 min 0,000 mm 0,0 UV-I 0 W/m 14,9 C 16,4 C 3,2 km/h (1 Bft)
26.09.2021 00:48 16,4 C 15,6 C 17,2 C 91 % 0 lf 1016,1 hPa 0,0 l/m 0,9 km/h (0 Bft) N 355 0 min 0 min 0,000 mm 0,0 UV-I 0 W/m 14,9 C 16,4 C 4,8 km/h (1 Bft)
26.09.2021 00:46 16,4 C 15,6 C 17,2 C 91 % 0 lf 1016,1 hPa 0,0 l/m 1,5 km/h (1 Bft) N-NO 30 0 min 0 min 0,000 mm 0,0 UV-I 0 W/m 14,9 C 16,4 C 3,2 km/h (1 Bft)
26.09.2021 00:44 16,4 C 15,0 C 17,2 C 91 % 0 lf 1016,1 hPa 0,0 l/m 0,7 km/h (0 Bft) O-NO 60 0 min 0 min 0,000 mm 0,0 UV-I 0 W/m 14,9 C 16,4 C 3,2 km/h (1 Bft)
26.09.2021 00:42 16,4 C 15,0 C 17,2 C 91 % 0 lf 1016,1 hPa 0,0 l/m 1,6 km/h (1 Bft) O-NO 78 0 min 0 min 0,000 mm 0,0 UV-I 0 W/m 14,9 C 16,4 C 4,8 km/h (1 Bft)
26.09.2021 00:40 16,4 C 15,0 C 17,2 C 91 % 0 lf 1016,2 hPa 0,0 l/m 1,3 km/h (1 Bft) O 86 0 min 0 min 0,000 mm 0,0 UV-I 0 W/m 14,9 C 16,4 C 3,2 km/h (1 Bft)
26.09.2021 00:38 16,3 C 15,0 C 17,2 C 91 % 0 lf 1016,2 hPa 0,0 l/m 1,7 km/h (1 Bft) N 9 0 min 0 min 0,000 mm 0,0 UV-I 0 W/m 14,8 C 16,3 C 3,2 km/h (1 Bft)
26.09.2021 00:36 16,3 C 15,0 C 17,2 C 91 % 0 lf 1016,2 hPa 0,0 l/m 0,3 km/h (0 Bft) N 5 0 min 0 min 0,000 mm 0,0 UV-I 0 W/m 14,8 C 16,3 C 3,2 km/h (1 Bft)
26.09.2021 00:34 16,3 C 15,0 C 17,2 C 91 % 0 lf 1016,2 hPa 0,0 l/m 0,6 km/h (0 Bft) NO 37 0 min 0 min 0,000 mm 0,0 UV-I 0 W/m 14,8 C 16,3 C 3,2 km/h (1 Bft)
26.09.2021 00:32 16,3 C 15,0 C 17,2 C 91 % 0 lf 1016,2 hPa 0,0 l/m 1,5 km/h (1 Bft) NO 53 0 min 0 min 0,000 mm 0,0 UV-I 0 W/m 14,8 C 16,3 C 4,8 km/h (1 Bft)
26.09.2021 00:30 16,3 C 15,0 C 17,2 C 91 % 0 lf 1016,2 hPa 0,0 l/m 0,7 km/h (0 Bft) NO 52 0 min 0 min 0,000 mm 0,0 UV-I 0 W/m 14,8 C 16,3 C 1,6 km/h (1 Bft)
26.09.2021 00:28 16,3 C 15,0 C 17,2 C 91 % 0 lf 1016,1 hPa 0,0 l/m 0,4 km/h (0 Bft) O 88 0 min 0 min 0,000 mm 0,0 UV-I 0 W/m 14,8 C 16,3 C 1,6 km/h (1 Bft)
26.09.2021 00:26 16,2 C 15,0 C 17,2 C 91 % 0 lf 1016,1 hPa 0,0 l/m 0,8 km/h (0 Bft) NO 36 0 min 0 min 0,000 mm 0,0 UV-I 0 W/m 14,7 C 16,2 C 3,2 km/h (1 Bft)
26.09.2021 00:24 16,2 C 15,0 C 17,2 C 91 % 0 lf 1016,2 hPa 0,0 l/m 1,2 km/h (1 Bft) NO 43 0 min 0 min 0,000 mm 0,0 UV-I 0 W/m 14,7 C 16,2 C 3,2 km/h (1 Bft)
26.09.2021 00:22 16,2 C 15,0 C 17,2 C 91 % 0 lf 1016,2 hPa 0,0 l/m 0,7 km/h (0 Bft) NO 49 0 min 0 min 0,000 mm 0,0 UV-I 0 W/m 14,7 C 16,2 C 1,6 km/h (1 Bft)
26.09.2021 00:20 16,2 C 15,0 C 17,2 C 92 % 0 lf 1016,2 hPa 0,0 l/m 1,3 km/h (1 Bft) O 85 0 min 0 min 0,000 mm 0,0 UV-I 0 W/m 14,9 C 16,2 C 3,2 km/h (1 Bft)
26.09.2021 00:18 16,2 C 15,0 C 17,2 C 92 % 0 lf 1016,2 hPa 0,0 l/m 1,9 km/h (1 Bft) N-NO 26 0 min 0 min 0,000 mm 0,0 UV-I 0 W/m 14,9 C 16,2 C 3,2 km/h (1 Bft)
26.09.2021 00:16 16,2 C 15,0 C 17,2 C 92 % 0 lf 1016,2 hPa 0,0 l/m 1,8 km/h (1 Bft) NO 42 0 min 0 min 0,000 mm 0,0 UV-I 0 W/m 14,9 C 16,2 C 4,8 km/h (1 Bft)
26.09.2021 00:14 16,1 C 15,0 C 17,2 C 92 % 0 lf 1016,2 hPa 0,0 l/m 1,7 km/h (1 Bft) NO 49 0 min 0 min 0,000 mm 0,0 UV-I 0 W/m 14,8 C 16,1 C 4,8 km/h (1 Bft)
26.09.2021 00:12 16,1 C 15,0 C 17,2 C 92 % 0 lf 1016,2 hPa 0,0 l/m 0,3 km/h (0 Bft) O-NO 66 0 min 0 min 0,000 mm 0,0 UV-I 0 W/m 14,8 C 16,1 C 1,6 km/h (1 Bft)
26.09.2021 00:10 16,1 C 15,0 C 17,2 C 92 % 0 lf 1016,1 hPa 0,0 l/m 0,0 km/h (0 Bft) N 355 0 min 0 min 0,000 mm 0,0 UV-I 0 W/m 14,8 C 16,1 C 1,6 km/h (1 Bft)
26.09.2021 00:08 16,1 C 15,0 C 17,2 C 92 % 0 lf 1016,2 hPa 0,0 l/m 0,2 km/h (0 Bft) N 355 0 min 0 min 0,000 mm 0,0 UV-I 0 W/m 14,8 C 16,1 C 1,6 km/h (1 Bft)
26.09.2021 00:06 16,1 C 15,0 C 17,2 C 92 % 0 lf 1016,2 hPa 0,0 l/m 0,0 km/h (0 Bft) N 355 0 min 0 min 0,000 mm 0,0 UV-I 0 W/m 14,8 C 16,1 C 0,0 km/h (0 Bft)
26.09.2021 00:04 16,1 C 15,0 C 17,2 C 92 % 0 lf 1016,1 hPa 0,0 l/m 0,0 km/h (0 Bft) N 355 0 min 0 min 0,000 mm 0,0 UV-I 0 W/m 14,8 C 16,1 C 1,6 km/h (1 Bft)
26.09.2021 00:02 16,1 C 15,0 C 17,2 C 92 % 0 lf 1016,2 hPa 0,0 l/m 0,0 km/h (0 Bft) N 355 0 min 0 min 0,000 mm 0,0 UV-I 0 W/m 14,8 C 16,1 C 1,6 km/h (1 Bft)
26.09.2021 00:00 16,1 C 15,0 C 17,2 C 92 % 0 lf 1016,2 hPa 0,0 l/m 0,0 km/h (0 Bft) NW 317 0 min 0 min 0,000 mm 0,0 UV-I 0 W/m 14,8 C 16,1 C 1,6 km/h (1 Bft)
_ Min-Zeit 08:10 08:04 10:48 16:06 17:58 17:40 - 11:20 - - - - - - - 08:10 08:10 11:20
Minimum _ 14,9 C 12,8 C 15,6 C 73 % 0 lf 1014,1 hPa - 0,0 km/h (0 Bft) - - - - - - - 13,9 C 14,9 C 0,0 km/h (0 Bft)
_ Max-Zeit 16:04 16:02 17:58 08:14 08:12 00:40 17:58 13:40 - - 17:56 17:58 14:02 13:36 13:38 16:00 16:04 13:40
Maximum _ 23,2 C 28,9 C 20,0 C 95 % 9 lf 1016,2 hPa 0,0 l/m 9,5 km/h
S-SO (2 Bft)
- - 2 min 0 min 0,229 mm 1,7 UV-I 691 W/m 18,6 C 23,2 C 16,1 km/h
S (3 Bft)
Durchschnitt _ 18,3 C 18,1 C 17,1 C 86 % 0 lf 1015,0 hPa #0,0 l/m 1,9 km/h (1 Bft) SO - #4:44 h #0 min. #1,422 mm 0,8 UV-I 221 W/m 15,8 C 18,3 C 3,9 km/h (1 Bft)
Betreiber Volker Afflerbach